<?xml version="1.0" encoding="UTF-8" standalone="no" ?>
<gpx xmlns="http://www.topografix.com/GPX/1/1" xmlns:xsi="http://www.w3.org/2001/XMLSchema-instance" xsi:schemaLocation="http://www.topografix.com/GPX/1/1 http://www.topografix.com/GPX/1/1/gpx.xsd" version="1.1" creator="VisuGPX - https://www.visugpx.com">
  <metadata>
    <name>Aulp du Seuil</name>
    <desc><![CDATA[Descente par la Virgule]]></desc>
  </metadata>
  <trk>
    <name><![CDATA[Aulp du Seuil | Descente par la Virgule]]></name>
    <trkseg>
      <trkpt lat="45.3562" lon="5.919">
        <ele>1062</ele>
        <time>2012-02-05T08:36:30-05:00</time>
      </trkpt>
      <trkpt lat="45.3561" lon="5.919">
        <ele>1066</ele>
        <time>2012-02-05T08:42:32-05:00</time>
      </trkpt>
      <trkpt lat="45.3561" lon="5.919">
        <ele>1069</ele>
        <time>2012-02-05T08:42:45-05:00</time>
      </trkpt>
      <trkpt lat="45.3561" lon="5.919">
        <ele>1071</ele>
        <time>2012-02-05T08:43:10-05:00</time>
      </trkpt>
      <trkpt lat="45.3561" lon="5.919">
        <ele>1071</ele>
        <time>2012-02-05T08:43:37-05:00</time>
      </trkpt>
      <trkpt lat="45.3561" lon="5.919">
        <ele>1072</ele>
        <time>2012-02-05T08:44:33-05:00</time>
      </trkpt>
      <trkpt lat="45.3561" lon="5.919">
        <ele>1073</ele>
        <time>2012-02-05T08:45:08-05:00</time>
      </trkpt>
      <trkpt lat="45.3561" lon="5.919">
        <ele>1073</ele>
        <time>2012-02-05T08:45:28-05:00</time>
      </trkpt>
      <trkpt lat="45.3561" lon="5.919">
        <ele>1073</ele>
        <time>2012-02-05T08:45:47-05:00</time>
      </trkpt>
      <trkpt lat="45.3561" lon="5.919">
        <ele>1074</ele>
        <time>2012-02-05T08:46:02-05:00</time>
      </trkpt>
      <trkpt lat="45.3559" lon="5.919">
        <ele>1074</ele>
        <time>2012-02-05T08:46:14-05:00</time>
      </trkpt>
      <trkpt lat="45.3559" lon="5.9188">
        <ele>1074</ele>
        <time>2012-02-05T08:46:27-05:00</time>
      </trkpt>
      <trkpt lat="45.356" lon="5.9187">
        <ele>1074</ele>
        <time>2012-02-05T08:46:43-05:00</time>
      </trkpt>
      <trkpt lat="45.356" lon="5.9187">
        <ele>1074</ele>
        <time>2012-02-05T08:46:46-05:00</time>
      </trkpt>
      <trkpt lat="45.3562" lon="5.9186">
        <ele>1075</ele>
        <time>2012-02-05T08:47:13-05:00</time>
      </trkpt>
      <trkpt lat="45.3562" lon="5.9185">
        <ele>1075</ele>
        <time>2012-02-05T08:47:29-05:00</time>
      </trkpt>
      <trkpt lat="45.3562" lon="5.9185">
        <ele>1076</ele>
        <time>2012-02-05T08:47:45-05:00</time>
      </trkpt>
      <trkpt lat="45.3562" lon="5.9185">
        <ele>1076</ele>
        <time>2012-02-05T08:47:59-05:00</time>
      </trkpt>
      <trkpt lat="45.3562" lon="5.9185">
        <ele>1076</ele>
        <time>2012-02-05T08:48:52-05:00</time>
      </trkpt>
      <trkpt lat="45.3562" lon="5.9185">
        <ele>1076</ele>
        <time>2012-02-05T08:49:31-05:00</time>
      </trkpt>
      <trkpt lat="45.3562" lon="5.9185">
        <ele>1075</ele>
        <time>2012-02-05T08:50:37-05:00</time>
      </trkpt>
      <trkpt lat="45.3562" lon="5.9185">
        <ele>1075</ele>
        <time>2012-02-05T08:51:13-05:00</time>
      </trkpt>
      <trkpt lat="45.3562" lon="5.9185">
        <ele>1075</ele>
        <time>2012-02-05T08:53:31-05:00</time>
      </trkpt>
      <trkpt lat="45.3562" lon="5.9185">
        <ele>1075</ele>
        <time>2012-02-05T08:54:18-05:00</time>
      </trkpt>
      <trkpt lat="45.3562" lon="5.9185">
        <ele>1074</ele>
        <time>2012-02-05T08:55:28-05:00</time>
      </trkpt>
      <trkpt lat="45.3562" lon="5.9185">
        <ele>1074</ele>
        <time>2012-02-05T08:55:40-05:00</time>
      </trkpt>
      <trkpt lat="45.3562" lon="5.9185">
        <ele>1073</ele>
        <time>2012-02-05T08:55:55-05:00</time>
      </trkpt>
      <trkpt lat="45.3562" lon="5.9185">
        <ele>1072</ele>
        <time>2012-02-05T08:56:09-05:00</time>
      </trkpt>
      <trkpt lat="45.3562" lon="5.9185">
        <ele>1072</ele>
        <time>2012-02-05T08:56:34-05:00</time>
      </trkpt>
      <trkpt lat="45.3562" lon="5.9185">
        <ele>1073</ele>
        <time>2012-02-05T08:57:13-05:00</time>
      </trkpt>
      <trkpt lat="45.3562" lon="5.9185">
        <ele>1074</ele>
        <time>2012-02-05T08:57:29-05:00</time>
      </trkpt>
      <trkpt lat="45.3562" lon="5.9185">
        <ele>1074</ele>
        <time>2012-02-05T08:57:31-05:00</time>
      </trkpt>
      <trkpt lat="45.3563" lon="5.9185">
        <ele>1073</ele>
        <time>2012-02-05T08:57:35-05:00</time>
      </trkpt>
      <trkpt lat="45.3563" lon="5.9185">
        <ele>1073</ele>
        <time>2012-02-05T08:57:50-05:00</time>
      </trkpt>
      <trkpt lat="45.3564" lon="5.9185">
        <ele>1072</ele>
        <time>2012-02-05T08:58:14-05:00</time>
      </trkpt>
      <trkpt lat="45.3563" lon="5.9185">
        <ele>1072</ele>
        <time>2012-02-05T08:58:33-05:00</time>
      </trkpt>
      <trkpt lat="45.3562" lon="5.9185">
        <ele>1072</ele>
        <time>2012-02-05T08:58:54-05:00</time>
      </trkpt>
      <trkpt lat="45.3562" lon="5.9185">
        <ele>1072</ele>
        <time>2012-02-05T08:59:14-05:00</time>
      </trkpt>
      <trkpt lat="45.3562" lon="5.9185">
        <ele>1073</ele>
        <time>2012-02-05T08:59:31-05:00</time>
      </trkpt>
      <trkpt lat="45.3562" lon="5.9185">
        <ele>1073</ele>
        <time>2012-02-05T08:59:53-05:00</time>
      </trkpt>
      <trkpt lat="45.3562" lon="5.9185">
        <ele>1073</ele>
        <time>2012-02-05T09:00:32-05:00</time>
      </trkpt>
      <trkpt lat="45.3561" lon="5.9184">
        <ele>1074</ele>
        <time>2012-02-05T09:00:50-05:00</time>
      </trkpt>
      <trkpt lat="45.3561" lon="5.9184">
        <ele>1074</ele>
        <time>2012-02-05T09:01:40-05:00</time>
      </trkpt>
      <trkpt lat="45.3561" lon="5.9184">
        <ele>1074</ele>
        <time>2012-02-05T09:01:59-05:00</time>
      </trkpt>
      <trkpt lat="45.3561" lon="5.9184">
        <ele>1075</ele>
        <time>2012-02-05T09:03:04-05:00</time>
      </trkpt>
      <trkpt lat="45.3562" lon="5.9184">
        <ele>1075</ele>
        <time>2012-02-05T09:03:41-05:00</time>
      </trkpt>
      <trkpt lat="45.3562" lon="5.9184">
        <ele>1075</ele>
        <time>2012-02-05T09:04:18-05:00</time>
      </trkpt>
      <trkpt lat="45.3561" lon="5.9183">
        <ele>1075</ele>
        <time>2012-02-05T09:04:41-05:00</time>
      </trkpt>
      <trkpt lat="45.3561" lon="5.9182">
        <ele>1075</ele>
        <time>2012-02-05T09:05:09-05:00</time>
      </trkpt>
      <trkpt lat="45.3561" lon="5.9182">
        <ele>1075</ele>
        <time>2012-02-05T09:05:42-05:00</time>
      </trkpt>
      <trkpt lat="45.3561" lon="5.9182">
        <ele>1075</ele>
        <time>2012-02-05T09:06:35-05:00</time>
      </trkpt>
      <trkpt lat="45.3561" lon="5.9182">
        <ele>1075</ele>
        <time>2012-02-05T09:07:18-05:00</time>
      </trkpt>
      <trkpt lat="45.3561" lon="5.9182">
        <ele>1074</ele>
        <time>2012-02-05T09:07:43-05:00</time>
      </trkpt>
      <trkpt lat="45.3561" lon="5.9182">
        <ele>1074</ele>
        <time>2012-02-05T09:07:57-05:00</time>
      </trkpt>
      <trkpt lat="45.3561" lon="5.9182">
        <ele>1075</ele>
        <time>2012-02-05T09:08:15-05:00</time>
      </trkpt>
      <trkpt lat="45.3561" lon="5.9181">
        <ele>1075</ele>
        <time>2012-02-05T09:08:53-05:00</time>
      </trkpt>
      <trkpt lat="45.3561" lon="5.9181">
        <ele>1075</ele>
        <time>2012-02-05T09:09:27-05:00</time>
      </trkpt>
      <trkpt lat="45.356" lon="5.918">
        <ele>1075</ele>
        <time>2012-02-05T09:10:10-05:00</time>
      </trkpt>
      <trkpt lat="45.356" lon="5.918">
        <ele>1076</ele>
        <time>2012-02-05T09:10:41-05:00</time>
      </trkpt>
      <trkpt lat="45.356" lon="5.918">
        <ele>1076</ele>
        <time>2012-02-05T09:11:27-05:00</time>
      </trkpt>
      <trkpt lat="45.356" lon="5.918">
        <ele>1075</ele>
        <time>2012-02-05T09:11:54-05:00</time>
      </trkpt>
      <trkpt lat="45.356" lon="5.918">
        <ele>1075</ele>
        <time>2012-02-05T09:14:42-05:00</time>
      </trkpt>
      <trkpt lat="45.356" lon="5.9179">
        <ele>1075</ele>
        <time>2012-02-05T09:14:53-05:00</time>
      </trkpt>
      <trkpt lat="45.356" lon="5.9179">
        <ele>1075</ele>
        <time>2012-02-05T09:15:24-05:00</time>
      </trkpt>
      <trkpt lat="45.356" lon="5.9179">
        <ele>1075</ele>
        <time>2012-02-05T09:17:15-05:00</time>
      </trkpt>
      <trkpt lat="45.356" lon="5.9179">
        <ele>1075</ele>
        <time>2012-02-05T09:17:30-05:00</time>
      </trkpt>
      <trkpt lat="45.3559" lon="5.9176">
        <ele>1078</ele>
        <time>2012-02-05T09:18:01-05:00</time>
      </trkpt>
      <trkpt lat="45.3559" lon="5.9175">
        <ele>1081</ele>
        <time>2012-02-05T09:18:21-05:00</time>
      </trkpt>
      <trkpt lat="45.3558" lon="5.9173">
        <ele>1085</ele>
        <time>2012-02-05T09:18:45-05:00</time>
      </trkpt>
      <trkpt lat="45.3558" lon="5.9171">
        <ele>1089</ele>
        <time>2012-02-05T09:19:06-05:00</time>
      </trkpt>
      <trkpt lat="45.3558" lon="5.9171">
        <ele>1093</ele>
        <time>2012-02-05T09:19:23-05:00</time>
      </trkpt>
      <trkpt lat="45.3558" lon="5.9171">
        <ele>1094</ele>
        <time>2012-02-05T09:19:53-05:00</time>
      </trkpt>
      <trkpt lat="45.3558" lon="5.9171">
        <ele>1095</ele>
        <time>2012-02-05T09:20:11-05:00</time>
      </trkpt>
      <trkpt lat="45.3558" lon="5.9171">
        <ele>1096</ele>
        <time>2012-02-05T09:21:20-05:00</time>
      </trkpt>
      <trkpt lat="45.3558" lon="5.9171">
        <ele>1097</ele>
        <time>2012-02-05T09:21:52-05:00</time>
      </trkpt>
      <trkpt lat="45.3558" lon="5.917">
        <ele>1097</ele>
        <time>2012-02-05T09:22:10-05:00</time>
      </trkpt>
      <trkpt lat="45.3558" lon="5.917">
        <ele>1097</ele>
        <time>2012-02-05T09:23:12-05:00</time>
      </trkpt>
      <trkpt lat="45.3558" lon="5.917">
        <ele>1097</ele>
        <time>2012-02-05T09:23:48-05:00</time>
      </trkpt>
      <trkpt lat="45.3558" lon="5.917">
        <ele>1097</ele>
        <time>2012-02-05T09:24:52-05:00</time>
      </trkpt>
      <trkpt lat="45.3558" lon="5.9171">
        <ele>1097</ele>
        <time>2012-02-05T09:25:25-05:00</time>
      </trkpt>
      <trkpt lat="45.3558" lon="5.917">
        <ele>1097</ele>
        <time>2012-02-05T09:26:09-05:00</time>
      </trkpt>
      <trkpt lat="45.3558" lon="5.917">
        <ele>1097</ele>
        <time>2012-02-05T09:27:18-05:00</time>
      </trkpt>
      <trkpt lat="45.3558" lon="5.917">
        <ele>1096</ele>
        <time>2012-02-05T09:27:32-05:00</time>
      </trkpt>
      <trkpt lat="45.3559" lon="5.917">
        <ele>1096</ele>
        <time>2012-02-05T09:28:19-05:00</time>
      </trkpt>
      <trkpt lat="45.356" lon="5.9169">
        <ele>1096</ele>
        <time>2012-02-05T09:28:35-05:00</time>
      </trkpt>
      <trkpt lat="45.356" lon="5.9168">
        <ele>1096</ele>
        <time>2012-02-05T09:28:48-05:00</time>
      </trkpt>
      <trkpt lat="45.3561" lon="5.9166">
        <ele>1097</ele>
        <time>2012-02-05T09:29:10-05:00</time>
      </trkpt>
      <trkpt lat="45.3562" lon="5.9166">
        <ele>1098</ele>
        <time>2012-02-05T09:29:16-05:00</time>
      </trkpt>
      <trkpt lat="45.3562" lon="5.9165">
        <ele>1100</ele>
        <time>2012-02-05T09:29:31-05:00</time>
      </trkpt>
      <trkpt lat="45.3563" lon="5.9163">
        <ele>1103</ele>
        <time>2012-02-05T09:29:49-05:00</time>
      </trkpt>
      <trkpt lat="45.3564" lon="5.9161">
        <ele>1106</ele>
        <time>2012-02-05T09:30:08-05:00</time>
      </trkpt>
      <trkpt lat="45.3564" lon="5.9161">
        <ele>1108</ele>
        <time>2012-02-05T09:30:09-05:00</time>
      </trkpt>
      <trkpt lat="45.3564" lon="5.916">
        <ele>1111</ele>
        <time>2012-02-05T09:30:28-05:00</time>
      </trkpt>
      <trkpt lat="45.3565" lon="5.9158">
        <ele>1115</ele>
        <time>2012-02-05T09:30:46-05:00</time>
      </trkpt>
      <trkpt lat="45.3565" lon="5.9157">
        <ele>1118</ele>
        <time>2012-02-05T09:31:05-05:00</time>
      </trkpt>
      <trkpt lat="45.3566" lon="5.9156">
        <ele>1122</ele>
        <time>2012-02-05T09:31:27-05:00</time>
      </trkpt>
      <trkpt lat="45.3567" lon="5.9154">
        <ele>1125</ele>
        <time>2012-02-05T09:31:45-05:00</time>
      </trkpt>
      <trkpt lat="45.3568" lon="5.9152">
        <ele>1129</ele>
        <time>2012-02-05T09:32:10-05:00</time>
      </trkpt>
      <trkpt lat="45.3569" lon="5.915">
        <ele>1133</ele>
        <time>2012-02-05T09:32:35-05:00</time>
      </trkpt>
      <trkpt lat="45.3569" lon="5.9149">
        <ele>1137</ele>
        <time>2012-02-05T09:32:53-05:00</time>
      </trkpt>
      <trkpt lat="45.357" lon="5.9147">
        <ele>1142</ele>
        <time>2012-02-05T09:33:19-05:00</time>
      </trkpt>
      <trkpt lat="45.3571" lon="5.9144">
        <ele>1146</ele>
        <time>2012-02-05T09:33:45-05:00</time>
      </trkpt>
      <trkpt lat="45.3571" lon="5.9142">
        <ele>1150</ele>
        <time>2012-02-05T09:34:07-05:00</time>
      </trkpt>
      <trkpt lat="45.3571" lon="5.914">
        <ele>1155</ele>
        <time>2012-02-05T09:34:29-05:00</time>
      </trkpt>
      <trkpt lat="45.3572" lon="5.9138">
        <ele>1159</ele>
        <time>2012-02-05T09:34:53-05:00</time>
      </trkpt>
      <trkpt lat="45.3572" lon="5.9136">
        <ele>1162</ele>
        <time>2012-02-05T09:35:21-05:00</time>
      </trkpt>
      <trkpt lat="45.3572" lon="5.9133">
        <ele>1165</ele>
        <time>2012-02-05T09:35:52-05:00</time>
      </trkpt>
      <trkpt lat="45.3572" lon="5.9133">
        <ele>1168</ele>
        <time>2012-02-05T09:36:16-05:00</time>
      </trkpt>
      <trkpt lat="45.3573" lon="5.9132">
        <ele>1172</ele>
        <time>2012-02-05T09:36:38-05:00</time>
      </trkpt>
      <trkpt lat="45.3574" lon="5.9131">
        <ele>1174</ele>
        <time>2012-02-05T09:36:56-05:00</time>
      </trkpt>
      <trkpt lat="45.3573" lon="5.913">
        <ele>1175</ele>
        <time>2012-02-05T09:37:09-05:00</time>
      </trkpt>
      <trkpt lat="45.3572" lon="5.9129">
        <ele>1178</ele>
        <time>2012-02-05T09:37:27-05:00</time>
      </trkpt>
      <trkpt lat="45.3572" lon="5.9127">
        <ele>1182</ele>
        <time>2012-02-05T09:37:51-05:00</time>
      </trkpt>
      <trkpt lat="45.3572" lon="5.9126">
        <ele>1186</ele>
        <time>2012-02-05T09:38:15-05:00</time>
      </trkpt>
      <trkpt lat="45.3574" lon="5.9124">
        <ele>1189</ele>
        <time>2012-02-05T09:38:37-05:00</time>
      </trkpt>
      <trkpt lat="45.3574" lon="5.9123">
        <ele>1191</ele>
        <time>2012-02-05T09:38:52-05:00</time>
      </trkpt>
      <trkpt lat="45.3574" lon="5.9122">
        <ele>1193</ele>
        <time>2012-02-05T09:39:07-05:00</time>
      </trkpt>
      <trkpt lat="45.3573" lon="5.9121">
        <ele>1196</ele>
        <time>2012-02-05T09:39:28-05:00</time>
      </trkpt>
      <trkpt lat="45.3572" lon="5.9119">
        <ele>1199</ele>
        <time>2012-02-05T09:39:49-05:00</time>
      </trkpt>
      <trkpt lat="45.3571" lon="5.9117">
        <ele>1203</ele>
        <time>2012-02-05T09:40:17-05:00</time>
      </trkpt>
      <trkpt lat="45.3572" lon="5.9115">
        <ele>1206</ele>
        <time>2012-02-05T09:40:40-05:00</time>
      </trkpt>
      <trkpt lat="45.3573" lon="5.9114">
        <ele>1210</ele>
        <time>2012-02-05T09:41:00-05:00</time>
      </trkpt>
      <trkpt lat="45.3572" lon="5.9112">
        <ele>1213</ele>
        <time>2012-02-05T09:41:24-05:00</time>
      </trkpt>
      <trkpt lat="45.3571" lon="5.911">
        <ele>1217</ele>
        <time>2012-02-05T09:41:51-05:00</time>
      </trkpt>
      <trkpt lat="45.3571" lon="5.9109">
        <ele>1221</ele>
        <time>2012-02-05T09:42:12-05:00</time>
      </trkpt>
      <trkpt lat="45.3571" lon="5.9107">
        <ele>1223</ele>
        <time>2012-02-05T09:42:32-05:00</time>
      </trkpt>
      <trkpt lat="45.357" lon="5.9105">
        <ele>1227</ele>
        <time>2012-02-05T09:42:53-05:00</time>
      </trkpt>
      <trkpt lat="45.3569" lon="5.9103">
        <ele>1232</ele>
        <time>2012-02-05T09:43:19-05:00</time>
      </trkpt>
      <trkpt lat="45.3568" lon="5.9101">
        <ele>1235</ele>
        <time>2012-02-05T09:43:43-05:00</time>
      </trkpt>
      <trkpt lat="45.3569" lon="5.9099">
        <ele>1238</ele>
        <time>2012-02-05T09:44:04-05:00</time>
      </trkpt>
      <trkpt lat="45.3569" lon="5.9097">
        <ele>1241</ele>
        <time>2012-02-05T09:44:24-05:00</time>
      </trkpt>
      <trkpt lat="45.3568" lon="5.9096">
        <ele>1245</ele>
        <time>2012-02-05T09:44:42-05:00</time>
      </trkpt>
      <trkpt lat="45.3567" lon="5.9095">
        <ele>1248</ele>
        <time>2012-02-05T09:45:01-05:00</time>
      </trkpt>
      <trkpt lat="45.3568" lon="5.9094">
        <ele>1252</ele>
        <time>2012-02-05T09:45:16-05:00</time>
      </trkpt>
      <trkpt lat="45.3569" lon="5.9092">
        <ele>1255</ele>
        <time>2012-02-05T09:45:35-05:00</time>
      </trkpt>
      <trkpt lat="45.3571" lon="5.9091">
        <ele>1259</ele>
        <time>2012-02-05T09:45:54-05:00</time>
      </trkpt>
      <trkpt lat="45.357" lon="5.909">
        <ele>1263</ele>
        <time>2012-02-05T09:46:18-05:00</time>
      </trkpt>
      <trkpt lat="45.357" lon="5.9088">
        <ele>1266</ele>
        <time>2012-02-05T09:46:37-05:00</time>
      </trkpt>
      <trkpt lat="45.3571" lon="5.9087">
        <ele>1269</ele>
        <time>2012-02-05T09:46:56-05:00</time>
      </trkpt>
      <trkpt lat="45.3572" lon="5.9088">
        <ele>1273</ele>
        <time>2012-02-05T09:47:19-05:00</time>
      </trkpt>
      <trkpt lat="45.3572" lon="5.9088">
        <ele>1276</ele>
        <time>2012-02-05T09:48:49-05:00</time>
      </trkpt>
      <trkpt lat="45.3573" lon="5.9087">
        <ele>1278</ele>
        <time>2012-02-05T09:52:57-05:00</time>
      </trkpt>
      <trkpt lat="45.3575" lon="5.9088">
        <ele>1281</ele>
        <time>2012-02-05T09:53:28-05:00</time>
      </trkpt>
      <trkpt lat="45.3577" lon="5.9088">
        <ele>1284</ele>
        <time>2012-02-05T09:53:47-05:00</time>
      </trkpt>
      <trkpt lat="45.3578" lon="5.9088">
        <ele>1286</ele>
        <time>2012-02-05T09:54:09-05:00</time>
      </trkpt>
      <trkpt lat="45.3578" lon="5.9089">
        <ele>1286</ele>
        <time>2012-02-05T09:54:22-05:00</time>
      </trkpt>
      <trkpt lat="45.3579" lon="5.9089">
        <ele>1287</ele>
        <time>2012-02-05T09:54:26-05:00</time>
      </trkpt>
      <trkpt lat="45.358" lon="5.9089">
        <ele>1288</ele>
        <time>2012-02-05T09:54:40-05:00</time>
      </trkpt>
      <trkpt lat="45.358" lon="5.9089">
        <ele>1289</ele>
        <time>2012-02-05T09:55:01-05:00</time>
      </trkpt>
      <trkpt lat="45.358" lon="5.9087">
        <ele>1291</ele>
        <time>2012-02-05T09:55:22-05:00</time>
      </trkpt>
      <trkpt lat="45.358" lon="5.9085">
        <ele>1294</ele>
        <time>2012-02-05T09:55:47-05:00</time>
      </trkpt>
      <trkpt lat="45.358" lon="5.9083">
        <ele>1298</ele>
        <time>2012-02-05T09:56:13-05:00</time>
      </trkpt>
      <trkpt lat="45.358" lon="5.9082">
        <ele>1303</ele>
        <time>2012-02-05T09:56:34-05:00</time>
      </trkpt>
      <trkpt lat="45.358" lon="5.9081">
        <ele>1306</ele>
        <time>2012-02-05T09:56:49-05:00</time>
      </trkpt>
      <trkpt lat="45.358" lon="5.908">
        <ele>1308</ele>
        <time>2012-02-05T09:57:10-05:00</time>
      </trkpt>
      <trkpt lat="45.3581" lon="5.9079">
        <ele>1310</ele>
        <time>2012-02-05T09:57:29-05:00</time>
      </trkpt>
      <trkpt lat="45.358" lon="5.9078">
        <ele>1312</ele>
        <time>2012-02-05T09:57:51-05:00</time>
      </trkpt>
      <trkpt lat="45.358" lon="5.9076">
        <ele>1315</ele>
        <time>2012-02-05T09:58:08-05:00</time>
      </trkpt>
      <trkpt lat="45.3579" lon="5.9076">
        <ele>1316</ele>
        <time>2012-02-05T09:58:23-05:00</time>
      </trkpt>
      <trkpt lat="45.3578" lon="5.9075">
        <ele>1318</ele>
        <time>2012-02-05T09:58:41-05:00</time>
      </trkpt>
      <trkpt lat="45.3577" lon="5.9074">
        <ele>1320</ele>
        <time>2012-02-05T09:59:06-05:00</time>
      </trkpt>
      <trkpt lat="45.3575" lon="5.9072">
        <ele>1326</ele>
        <time>2012-02-05T09:59:44-05:00</time>
      </trkpt>
      <trkpt lat="45.3575" lon="5.9071">
        <ele>1333</ele>
        <time>2012-02-05T10:00:07-05:00</time>
      </trkpt>
      <trkpt lat="45.3573" lon="5.907">
        <ele>1340</ele>
        <time>2012-02-05T10:00:31-05:00</time>
      </trkpt>
      <trkpt lat="45.3573" lon="5.9068">
        <ele>1345</ele>
        <time>2012-02-05T10:00:56-05:00</time>
      </trkpt>
      <trkpt lat="45.3573" lon="5.9066">
        <ele>1350</ele>
        <time>2012-02-05T10:01:19-05:00</time>
      </trkpt>
      <trkpt lat="45.3571" lon="5.9064">
        <ele>1359</ele>
        <time>2012-02-05T10:02:04-05:00</time>
      </trkpt>
      <trkpt lat="45.3571" lon="5.9062">
        <ele>1367</ele>
        <time>2012-02-05T10:02:19-05:00</time>
      </trkpt>
      <trkpt lat="45.3571" lon="5.9062">
        <ele>1372</ele>
        <time>2012-02-05T10:02:33-05:00</time>
      </trkpt>
      <trkpt lat="45.357" lon="5.906">
        <ele>1375</ele>
        <time>2012-02-05T10:02:53-05:00</time>
      </trkpt>
      <trkpt lat="45.3569" lon="5.9059">
        <ele>1376</ele>
        <time>2012-02-05T10:03:16-05:00</time>
      </trkpt>
      <trkpt lat="45.3568" lon="5.9058">
        <ele>1378</ele>
        <time>2012-02-05T10:03:29-05:00</time>
      </trkpt>
      <trkpt lat="45.3567" lon="5.9057">
        <ele>1379</ele>
        <time>2012-02-05T10:03:46-05:00</time>
      </trkpt>
      <trkpt lat="45.3567" lon="5.9055">
        <ele>1380</ele>
        <time>2012-02-05T10:04:06-05:00</time>
      </trkpt>
      <trkpt lat="45.3566" lon="5.9055">
        <ele>1381</ele>
        <time>2012-02-05T10:05:02-05:00</time>
      </trkpt>
      <trkpt lat="45.3566" lon="5.9053">
        <ele>1380</ele>
        <time>2012-02-05T10:05:18-05:00</time>
      </trkpt>
      <trkpt lat="45.3566" lon="5.9051">
        <ele>1379</ele>
        <time>2012-02-05T10:05:36-05:00</time>
      </trkpt>
      <trkpt lat="45.3565" lon="5.9049">
        <ele>1381</ele>
        <time>2012-02-05T10:05:49-05:00</time>
      </trkpt>
      <trkpt lat="45.3565" lon="5.9048">
        <ele>1384</ele>
        <time>2012-02-05T10:06:08-05:00</time>
      </trkpt>
      <trkpt lat="45.3564" lon="5.9046">
        <ele>1387</ele>
        <time>2012-02-05T10:06:23-05:00</time>
      </trkpt>
      <trkpt lat="45.3564" lon="5.9044">
        <ele>1393</ele>
        <time>2012-02-05T10:06:47-05:00</time>
      </trkpt>
      <trkpt lat="45.3563" lon="5.9042">
        <ele>1399</ele>
        <time>2012-02-05T10:07:06-05:00</time>
      </trkpt>
      <trkpt lat="45.3562" lon="5.9041">
        <ele>1403</ele>
        <time>2012-02-05T10:07:24-05:00</time>
      </trkpt>
      <trkpt lat="45.356" lon="5.9039">
        <ele>1407</ele>
        <time>2012-02-05T10:07:47-05:00</time>
      </trkpt>
      <trkpt lat="45.3559" lon="5.9037">
        <ele>1409</ele>
        <time>2012-02-05T10:08:09-05:00</time>
      </trkpt>
      <trkpt lat="45.3558" lon="5.9037">
        <ele>1412</ele>
        <time>2012-02-05T10:08:28-05:00</time>
      </trkpt>
      <trkpt lat="45.3556" lon="5.9036">
        <ele>1414</ele>
        <time>2012-02-05T10:09:00-05:00</time>
      </trkpt>
      <trkpt lat="45.3555" lon="5.9035">
        <ele>1415</ele>
        <time>2012-02-05T10:09:17-05:00</time>
      </trkpt>
      <trkpt lat="45.3554" lon="5.9034">
        <ele>1418</ele>
        <time>2012-02-05T10:09:55-05:00</time>
      </trkpt>
      <trkpt lat="45.3553" lon="5.9034">
        <ele>1423</ele>
        <time>2012-02-05T10:10:30-05:00</time>
      </trkpt>
      <trkpt lat="45.3552" lon="5.9034">
        <ele>1426</ele>
        <time>2012-02-05T10:10:54-05:00</time>
      </trkpt>
      <trkpt lat="45.3552" lon="5.9033">
        <ele>1429</ele>
        <time>2012-02-05T10:11:06-05:00</time>
      </trkpt>
      <trkpt lat="45.3552" lon="5.9032">
        <ele>1432</ele>
        <time>2012-02-05T10:11:23-05:00</time>
      </trkpt>
      <trkpt lat="45.3552" lon="5.9031">
        <ele>1435</ele>
        <time>2012-02-05T10:11:47-05:00</time>
      </trkpt>
      <trkpt lat="45.3552" lon="5.9029">
        <ele>1440</ele>
        <time>2012-02-05T10:12:36-05:00</time>
      </trkpt>
      <trkpt lat="45.3551" lon="5.9028">
        <ele>1442</ele>
        <time>2012-02-05T10:12:53-05:00</time>
      </trkpt>
      <trkpt lat="45.355" lon="5.9027">
        <ele>1446</ele>
        <time>2012-02-05T10:13:14-05:00</time>
      </trkpt>
      <trkpt lat="45.355" lon="5.9027">
        <ele>1450</ele>
        <time>2012-02-05T10:13:30-05:00</time>
      </trkpt>
      <trkpt lat="45.3549" lon="5.9026">
        <ele>1454</ele>
        <time>2012-02-05T10:13:51-05:00</time>
      </trkpt>
      <trkpt lat="45.3549" lon="5.9024">
        <ele>1458</ele>
        <time>2012-02-05T10:14:11-05:00</time>
      </trkpt>
      <trkpt lat="45.3549" lon="5.9023">
        <ele>1461</ele>
        <time>2012-02-05T10:14:28-05:00</time>
      </trkpt>
      <trkpt lat="45.3549" lon="5.9022">
        <ele>1463</ele>
        <time>2012-02-05T10:14:49-05:00</time>
      </trkpt>
      <trkpt lat="45.3549" lon="5.902">
        <ele>1465</ele>
        <time>2012-02-05T10:15:11-05:00</time>
      </trkpt>
      <trkpt lat="45.3548" lon="5.9018">
        <ele>1467</ele>
        <time>2012-02-05T10:15:35-05:00</time>
      </trkpt>
      <trkpt lat="45.3549" lon="5.9017">
        <ele>1469</ele>
        <time>2012-02-05T10:15:58-05:00</time>
      </trkpt>
      <trkpt lat="45.3549" lon="5.9016">
        <ele>1469</ele>
        <time>2012-02-05T10:16:17-05:00</time>
      </trkpt>
      <trkpt lat="45.3549" lon="5.9017">
        <ele>1469</ele>
        <time>2012-02-05T10:16:52-05:00</time>
      </trkpt>
      <trkpt lat="45.3548" lon="5.9016">
        <ele>1468</ele>
        <time>2012-02-05T10:17:30-05:00</time>
      </trkpt>
      <trkpt lat="45.3549" lon="5.9016">
        <ele>1467</ele>
        <time>2012-02-05T10:25:47-05:00</time>
      </trkpt>
      <trkpt lat="45.3549" lon="5.9016">
        <ele>1467</ele>
        <time>2012-02-05T10:26:01-05:00</time>
      </trkpt>
      <trkpt lat="45.3549" lon="5.9017">
        <ele>1468</ele>
        <time>2012-02-05T10:26:18-05:00</time>
      </trkpt>
      <trkpt lat="45.3549" lon="5.9017">
        <ele>1469</ele>
        <time>2012-02-05T10:26:54-05:00</time>
      </trkpt>
      <trkpt lat="45.3549" lon="5.9017">
        <ele>1470</ele>
        <time>2012-02-05T10:27:20-05:00</time>
      </trkpt>
      <trkpt lat="45.3549" lon="5.9017">
        <ele>1470</ele>
        <time>2012-02-05T10:27:37-05:00</time>
      </trkpt>
      <trkpt lat="45.3549" lon="5.9017">
        <ele>1470</ele>
        <time>2012-02-05T10:28:32-05:00</time>
      </trkpt>
      <trkpt lat="45.3549" lon="5.9017">
        <ele>1470</ele>
        <time>2012-02-05T10:29:11-05:00</time>
      </trkpt>
      <trkpt lat="45.355" lon="5.9017">
        <ele>1471</ele>
        <time>2012-02-05T10:29:32-05:00</time>
      </trkpt>
      <trkpt lat="45.355" lon="5.9016">
        <ele>1472</ele>
        <time>2012-02-05T10:29:48-05:00</time>
      </trkpt>
      <trkpt lat="45.3551" lon="5.9016">
        <ele>1474</ele>
        <time>2012-02-05T10:30:01-05:00</time>
      </trkpt>
      <trkpt lat="45.3552" lon="5.9016">
        <ele>1476</ele>
        <time>2012-02-05T10:30:16-05:00</time>
      </trkpt>
      <trkpt lat="45.3552" lon="5.9017">
        <ele>1478</ele>
        <time>2012-02-05T10:30:32-05:00</time>
      </trkpt>
      <trkpt lat="45.3553" lon="5.9017">
        <ele>1480</ele>
        <time>2012-02-05T10:30:47-05:00</time>
      </trkpt>
      <trkpt lat="45.3554" lon="5.9017">
        <ele>1482</ele>
        <time>2012-02-05T10:31:03-05:00</time>
      </trkpt>
      <trkpt lat="45.3555" lon="5.9017">
        <ele>1486</ele>
        <time>2012-02-05T10:31:33-05:00</time>
      </trkpt>
      <trkpt lat="45.3556" lon="5.9017">
        <ele>1489</ele>
        <time>2012-02-05T10:31:54-05:00</time>
      </trkpt>
      <trkpt lat="45.3557" lon="5.9017">
        <ele>1492</ele>
        <time>2012-02-05T10:32:20-05:00</time>
      </trkpt>
      <trkpt lat="45.3558" lon="5.9017">
        <ele>1495</ele>
        <time>2012-02-05T10:32:40-05:00</time>
      </trkpt>
      <trkpt lat="45.3559" lon="5.9016">
        <ele>1498</ele>
        <time>2012-02-05T10:33:06-05:00</time>
      </trkpt>
      <trkpt lat="45.356" lon="5.9016">
        <ele>1500</ele>
        <time>2012-02-05T10:33:29-05:00</time>
      </trkpt>
      <trkpt lat="45.3561" lon="5.9016">
        <ele>1504</ele>
        <time>2012-02-05T10:33:53-05:00</time>
      </trkpt>
      <trkpt lat="45.3562" lon="5.9016">
        <ele>1507</ele>
        <time>2012-02-05T10:34:17-05:00</time>
      </trkpt>
      <trkpt lat="45.3563" lon="5.9016">
        <ele>1510</ele>
        <time>2012-02-05T10:34:40-05:00</time>
      </trkpt>
      <trkpt lat="45.3563" lon="5.9015">
        <ele>1511</ele>
        <time>2012-02-05T10:35:02-05:00</time>
      </trkpt>
      <trkpt lat="45.3564" lon="5.9016">
        <ele>1512</ele>
        <time>2012-02-05T10:35:17-05:00</time>
      </trkpt>
      <trkpt lat="45.3564" lon="5.9016">
        <ele>1515</ele>
        <time>2012-02-05T10:35:36-05:00</time>
      </trkpt>
      <trkpt lat="45.3565" lon="5.9016">
        <ele>1517</ele>
        <time>2012-02-05T10:35:52-05:00</time>
      </trkpt>
      <trkpt lat="45.3566" lon="5.9016">
        <ele>1520</ele>
        <time>2012-02-05T10:36:17-05:00</time>
      </trkpt>
      <trkpt lat="45.3567" lon="5.9016">
        <ele>1523</ele>
        <time>2012-02-05T10:36:33-05:00</time>
      </trkpt>
      <trkpt lat="45.3567" lon="5.9016">
        <ele>1525</ele>
        <time>2012-02-05T10:36:47-05:00</time>
      </trkpt>
      <trkpt lat="45.3568" lon="5.9016">
        <ele>1528</ele>
        <time>2012-02-05T10:37:00-05:00</time>
      </trkpt>
      <trkpt lat="45.3568" lon="5.9015">
        <ele>1530</ele>
        <time>2012-02-05T10:37:13-05:00</time>
      </trkpt>
      <trkpt lat="45.3567" lon="5.9013">
        <ele>1532</ele>
        <time>2012-02-05T10:37:35-05:00</time>
      </trkpt>
      <trkpt lat="45.3567" lon="5.9013">
        <ele>1534</ele>
        <time>2012-02-05T10:37:49-05:00</time>
      </trkpt>
      <trkpt lat="45.3567" lon="5.9012">
        <ele>1536</ele>
        <time>2012-02-05T10:38:07-05:00</time>
      </trkpt>
      <trkpt lat="45.3566" lon="5.9011">
        <ele>1539</ele>
        <time>2012-02-05T10:38:30-05:00</time>
      </trkpt>
      <trkpt lat="45.3566" lon="5.901">
        <ele>1541</ele>
        <time>2012-02-05T10:38:53-05:00</time>
      </trkpt>
      <trkpt lat="45.3565" lon="5.9009">
        <ele>1544</ele>
        <time>2012-02-05T10:39:06-05:00</time>
      </trkpt>
      <trkpt lat="45.3565" lon="5.9009">
        <ele>1547</ele>
        <time>2012-02-05T10:39:21-05:00</time>
      </trkpt>
      <trkpt lat="45.3565" lon="5.9008">
        <ele>1549</ele>
        <time>2012-02-05T10:39:32-05:00</time>
      </trkpt>
      <trkpt lat="45.3564" lon="5.9007">
        <ele>1551</ele>
        <time>2012-02-05T10:39:44-05:00</time>
      </trkpt>
      <trkpt lat="45.3563" lon="5.9006">
        <ele>1553</ele>
        <time>2012-02-05T10:40:04-05:00</time>
      </trkpt>
      <trkpt lat="45.3563" lon="5.9005">
        <ele>1556</ele>
        <time>2012-02-05T10:40:22-05:00</time>
      </trkpt>
      <trkpt lat="45.3562" lon="5.9004">
        <ele>1559</ele>
        <time>2012-02-05T10:40:38-05:00</time>
      </trkpt>
      <trkpt lat="45.3562" lon="5.9002">
        <ele>1561</ele>
        <time>2012-02-05T10:40:55-05:00</time>
      </trkpt>
      <trkpt lat="45.3562" lon="5.9001">
        <ele>1563</ele>
        <time>2012-02-05T10:41:11-05:00</time>
      </trkpt>
      <trkpt lat="45.3561" lon="5.9">
        <ele>1565</ele>
        <time>2012-02-05T10:41:25-05:00</time>
      </trkpt>
      <trkpt lat="45.3561" lon="5.8999">
        <ele>1567</ele>
        <time>2012-02-05T10:41:47-05:00</time>
      </trkpt>
      <trkpt lat="45.3561" lon="5.8997">
        <ele>1570</ele>
        <time>2012-02-05T10:42:14-05:00</time>
      </trkpt>
      <trkpt lat="45.3562" lon="5.8997">
        <ele>1573</ele>
        <time>2012-02-05T10:42:25-05:00</time>
      </trkpt>
      <trkpt lat="45.3562" lon="5.8996">
        <ele>1576</ele>
        <time>2012-02-05T10:42:37-05:00</time>
      </trkpt>
      <trkpt lat="45.3562" lon="5.8995">
        <ele>1579</ele>
        <time>2012-02-05T10:42:58-05:00</time>
      </trkpt>
      <trkpt lat="45.3562" lon="5.8995">
        <ele>1580</ele>
        <time>2012-02-05T10:43:14-05:00</time>
      </trkpt>
      <trkpt lat="45.3562" lon="5.8995">
        <ele>1581</ele>
        <time>2012-02-05T10:43:51-05:00</time>
      </trkpt>
      <trkpt lat="45.3562" lon="5.8995">
        <ele>1582</ele>
        <time>2012-02-05T10:44:12-05:00</time>
      </trkpt>
      <trkpt lat="45.3562" lon="5.8994">
        <ele>1583</ele>
        <time>2012-02-05T10:44:31-05:00</time>
      </trkpt>
      <trkpt lat="45.3563" lon="5.8994">
        <ele>1583</ele>
        <time>2012-02-05T10:45:41-05:00</time>
      </trkpt>
      <trkpt lat="45.3563" lon="5.8994">
        <ele>1583</ele>
        <time>2012-02-05T10:46:04-05:00</time>
      </trkpt>
      <trkpt lat="45.3563" lon="5.8992">
        <ele>1587</ele>
        <time>2012-02-05T10:46:36-05:00</time>
      </trkpt>
      <trkpt lat="45.3563" lon="5.899">
        <ele>1591</ele>
        <time>2012-02-05T10:46:59-05:00</time>
      </trkpt>
      <trkpt lat="45.3563" lon="5.8989">
        <ele>1597</ele>
        <time>2012-02-05T10:47:22-05:00</time>
      </trkpt>
      <trkpt lat="45.3563" lon="5.8988">
        <ele>1600</ele>
        <time>2012-02-05T10:47:37-05:00</time>
      </trkpt>
      <trkpt lat="45.3563" lon="5.8988">
        <ele>1601</ele>
        <time>2012-02-05T10:48:50-05:00</time>
      </trkpt>
      <trkpt lat="45.3562" lon="5.8985">
        <ele>1604</ele>
        <time>2012-02-05T10:49:24-05:00</time>
      </trkpt>
      <trkpt lat="45.3562" lon="5.8984">
        <ele>1608</ele>
        <time>2012-02-05T10:49:47-05:00</time>
      </trkpt>
      <trkpt lat="45.3563" lon="5.8984">
        <ele>1611</ele>
        <time>2012-02-05T10:50:08-05:00</time>
      </trkpt>
      <trkpt lat="45.3563" lon="5.8983">
        <ele>1613</ele>
        <time>2012-02-05T10:50:25-05:00</time>
      </trkpt>
      <trkpt lat="45.3563" lon="5.8982">
        <ele>1616</ele>
        <time>2012-02-05T10:50:41-05:00</time>
      </trkpt>
      <trkpt lat="45.3563" lon="5.8982">
        <ele>1618</ele>
        <time>2012-02-05T10:50:56-05:00</time>
      </trkpt>
      <trkpt lat="45.3562" lon="5.8981">
        <ele>1620</ele>
        <time>2012-02-05T10:51:09-05:00</time>
      </trkpt>
      <trkpt lat="45.3562" lon="5.898">
        <ele>1623</ele>
        <time>2012-02-05T10:51:22-05:00</time>
      </trkpt>
      <trkpt lat="45.3562" lon="5.898">
        <ele>1625</ele>
        <time>2012-02-05T10:51:34-05:00</time>
      </trkpt>
      <trkpt lat="45.3562" lon="5.8979">
        <ele>1627</ele>
        <time>2012-02-05T10:51:53-05:00</time>
      </trkpt>
      <trkpt lat="45.3562" lon="5.8978">
        <ele>1628</ele>
        <time>2012-02-05T10:52:31-05:00</time>
      </trkpt>
      <trkpt lat="45.3562" lon="5.8978">
        <ele>1629</ele>
        <time>2012-02-05T10:53:36-05:00</time>
      </trkpt>
      <trkpt lat="45.3562" lon="5.8978">
        <ele>1629</ele>
        <time>2012-02-05T10:53:52-05:00</time>
      </trkpt>
      <trkpt lat="45.3562" lon="5.8977">
        <ele>1629</ele>
        <time>2012-02-05T10:55:24-05:00</time>
      </trkpt>
      <trkpt lat="45.3562" lon="5.8977">
        <ele>1628</ele>
        <time>2012-02-05T10:56:17-05:00</time>
      </trkpt>
      <trkpt lat="45.3562" lon="5.8977">
        <ele>1628</ele>
        <time>2012-02-05T10:57:00-05:00</time>
      </trkpt>
      <trkpt lat="45.3562" lon="5.8977">
        <ele>1629</ele>
        <time>2012-02-05T10:57:37-05:00</time>
      </trkpt>
      <trkpt lat="45.3562" lon="5.8977">
        <ele>1629</ele>
        <time>2012-02-05T10:58:33-05:00</time>
      </trkpt>
      <trkpt lat="45.3562" lon="5.8977">
        <ele>1629</ele>
        <time>2012-02-05T10:59:08-05:00</time>
      </trkpt>
      <trkpt lat="45.3562" lon="5.8976">
        <ele>1630</ele>
        <time>2012-02-05T10:59:37-05:00</time>
      </trkpt>
      <trkpt lat="45.3562" lon="5.8975">
        <ele>1631</ele>
        <time>2012-02-05T10:59:55-05:00</time>
      </trkpt>
      <trkpt lat="45.3562" lon="5.8975">
        <ele>1632</ele>
        <time>2012-02-05T11:00:14-05:00</time>
      </trkpt>
      <trkpt lat="45.3562" lon="5.8973">
        <ele>1635</ele>
        <time>2012-02-05T11:00:33-05:00</time>
      </trkpt>
      <trkpt lat="45.3562" lon="5.8972">
        <ele>1638</ele>
        <time>2012-02-05T11:00:58-05:00</time>
      </trkpt>
      <trkpt lat="45.3562" lon="5.8973">
        <ele>1641</ele>
        <time>2012-02-05T11:01:18-05:00</time>
      </trkpt>
      <trkpt lat="45.3562" lon="5.8973">
        <ele>1643</ele>
        <time>2012-02-05T11:01:44-05:00</time>
      </trkpt>
      <trkpt lat="45.3563" lon="5.8973">
        <ele>1644</ele>
        <time>2012-02-05T11:01:56-05:00</time>
      </trkpt>
      <trkpt lat="45.3563" lon="5.8973">
        <ele>1646</ele>
        <time>2012-02-05T11:02:11-05:00</time>
      </trkpt>
      <trkpt lat="45.3562" lon="5.8972">
        <ele>1648</ele>
        <time>2012-02-05T11:02:33-05:00</time>
      </trkpt>
      <trkpt lat="45.3562" lon="5.8971">
        <ele>1649</ele>
        <time>2012-02-05T11:02:53-05:00</time>
      </trkpt>
      <trkpt lat="45.3562" lon="5.897">
        <ele>1651</ele>
        <time>2012-02-05T11:03:10-05:00</time>
      </trkpt>
      <trkpt lat="45.3561" lon="5.8968">
        <ele>1654</ele>
        <time>2012-02-05T11:03:28-05:00</time>
      </trkpt>
      <trkpt lat="45.3561" lon="5.8968">
        <ele>1656</ele>
        <time>2012-02-05T11:03:48-05:00</time>
      </trkpt>
      <trkpt lat="45.3561" lon="5.8967">
        <ele>1659</ele>
        <time>2012-02-05T11:04:03-05:00</time>
      </trkpt>
      <trkpt lat="45.3562" lon="5.8967">
        <ele>1661</ele>
        <time>2012-02-05T11:04:20-05:00</time>
      </trkpt>
      <trkpt lat="45.3561" lon="5.8966">
        <ele>1663</ele>
        <time>2012-02-05T11:04:34-05:00</time>
      </trkpt>
      <trkpt lat="45.3561" lon="5.8966">
        <ele>1665</ele>
        <time>2012-02-05T11:05:01-05:00</time>
      </trkpt>
      <trkpt lat="45.3561" lon="5.8965">
        <ele>1667</ele>
        <time>2012-02-05T11:05:14-05:00</time>
      </trkpt>
      <trkpt lat="45.3561" lon="5.8965">
        <ele>1668</ele>
        <time>2012-02-05T11:05:31-05:00</time>
      </trkpt>
      <trkpt lat="45.3561" lon="5.8965">
        <ele>1669</ele>
        <time>2012-02-05T11:05:45-05:00</time>
      </trkpt>
      <trkpt lat="45.3562" lon="5.8965">
        <ele>1670</ele>
        <time>2012-02-05T11:06:01-05:00</time>
      </trkpt>
      <trkpt lat="45.3562" lon="5.8965">
        <ele>1672</ele>
        <time>2012-02-05T11:06:33-05:00</time>
      </trkpt>
      <trkpt lat="45.3562" lon="5.8965">
        <ele>1673</ele>
        <time>2012-02-05T11:06:47-05:00</time>
      </trkpt>
      <trkpt lat="45.3562" lon="5.8964">
        <ele>1674</ele>
        <time>2012-02-05T11:07:17-05:00</time>
      </trkpt>
      <trkpt lat="45.3562" lon="5.8963">
        <ele>1676</ele>
        <time>2012-02-05T11:07:36-05:00</time>
      </trkpt>
      <trkpt lat="45.3561" lon="5.8963">
        <ele>1678</ele>
        <time>2012-02-05T11:08:00-05:00</time>
      </trkpt>
      <trkpt lat="45.3561" lon="5.8962">
        <ele>1680</ele>
        <time>2012-02-05T11:08:14-05:00</time>
      </trkpt>
      <trkpt lat="45.3562" lon="5.8962">
        <ele>1681</ele>
        <time>2012-02-05T11:08:29-05:00</time>
      </trkpt>
      <trkpt lat="45.3562" lon="5.8962">
        <ele>1682</ele>
        <time>2012-02-05T11:08:53-05:00</time>
      </trkpt>
      <trkpt lat="45.3563" lon="5.8962">
        <ele>1683</ele>
        <time>2012-02-05T11:09:26-05:00</time>
      </trkpt>
      <trkpt lat="45.3563" lon="5.8962">
        <ele>1683</ele>
        <time>2012-02-05T11:09:41-05:00</time>
      </trkpt>
      <trkpt lat="45.3562" lon="5.8961">
        <ele>1684</ele>
        <time>2012-02-05T11:09:58-05:00</time>
      </trkpt>
      <trkpt lat="45.3562" lon="5.8961">
        <ele>1685</ele>
        <time>2012-02-05T11:10:24-05:00</time>
      </trkpt>
      <trkpt lat="45.3562" lon="5.8961">
        <ele>1685</ele>
        <time>2012-02-05T11:10:38-05:00</time>
      </trkpt>
      <trkpt lat="45.3562" lon="5.8961">
        <ele>1687</ele>
        <time>2012-02-05T11:10:52-05:00</time>
      </trkpt>
      <trkpt lat="45.3562" lon="5.8961">
        <ele>1687</ele>
        <time>2012-02-05T11:11:25-05:00</time>
      </trkpt>
      <trkpt lat="45.3563" lon="5.896">
        <ele>1688</ele>
        <time>2012-02-05T11:12:01-05:00</time>
      </trkpt>
      <trkpt lat="45.3563" lon="5.8961">
        <ele>1690</ele>
        <time>2012-02-05T11:12:19-05:00</time>
      </trkpt>
      <trkpt lat="45.3564" lon="5.8961">
        <ele>1691</ele>
        <time>2012-02-05T11:12:39-05:00</time>
      </trkpt>
      <trkpt lat="45.3564" lon="5.8961">
        <ele>1692</ele>
        <time>2012-02-05T11:12:56-05:00</time>
      </trkpt>
      <trkpt lat="45.3565" lon="5.8961">
        <ele>1694</ele>
        <time>2012-02-05T11:13:10-05:00</time>
      </trkpt>
      <trkpt lat="45.3565" lon="5.8961">
        <ele>1695</ele>
        <time>2012-02-05T11:13:28-05:00</time>
      </trkpt>
      <trkpt lat="45.3565" lon="5.8961">
        <ele>1696</ele>
        <time>2012-02-05T11:13:45-05:00</time>
      </trkpt>
      <trkpt lat="45.3565" lon="5.896">
        <ele>1697</ele>
        <time>2012-02-05T11:13:57-05:00</time>
      </trkpt>
      <trkpt lat="45.3566" lon="5.8961">
        <ele>1698</ele>
        <time>2012-02-05T11:14:19-05:00</time>
      </trkpt>
      <trkpt lat="45.3566" lon="5.896">
        <ele>1699</ele>
        <time>2012-02-05T11:14:37-05:00</time>
      </trkpt>
      <trkpt lat="45.3565" lon="5.896">
        <ele>1701</ele>
        <time>2012-02-05T11:15:07-05:00</time>
      </trkpt>
      <trkpt lat="45.3565" lon="5.8959">
        <ele>1702</ele>
        <time>2012-02-05T11:15:30-05:00</time>
      </trkpt>
      <trkpt lat="45.3565" lon="5.8959">
        <ele>1702</ele>
        <time>2012-02-05T11:17:06-05:00</time>
      </trkpt>
      <trkpt lat="45.3565" lon="5.8959">
        <ele>1702</ele>
        <time>2012-02-05T11:17:25-05:00</time>
      </trkpt>
      <trkpt lat="45.3565" lon="5.8959">
        <ele>1702</ele>
        <time>2012-02-05T11:18:07-05:00</time>
      </trkpt>
      <trkpt lat="45.3565" lon="5.8958">
        <ele>1699</ele>
        <time>2012-02-05T11:24:08-05:00</time>
      </trkpt>
      <trkpt lat="45.3565" lon="5.8959">
        <ele>1697</ele>
        <time>2012-02-05T11:24:52-05:00</time>
      </trkpt>
      <trkpt lat="45.3565" lon="5.8959">
        <ele>1696</ele>
        <time>2012-02-05T11:25:57-05:00</time>
      </trkpt>
      <trkpt lat="45.3565" lon="5.8959">
        <ele>1695</ele>
        <time>2012-02-05T11:26:31-05:00</time>
      </trkpt>
      <trkpt lat="45.3565" lon="5.8958">
        <ele>1694</ele>
        <time>2012-02-05T11:27:06-05:00</time>
      </trkpt>
      <trkpt lat="45.3565" lon="5.8958">
        <ele>1694</ele>
        <time>2012-02-05T11:27:44-05:00</time>
      </trkpt>
      <trkpt lat="45.3565" lon="5.8958">
        <ele>1694</ele>
        <time>2012-02-05T11:28:03-05:00</time>
      </trkpt>
      <trkpt lat="45.3565" lon="5.8958">
        <ele>1694</ele>
        <time>2012-02-05T11:29:09-05:00</time>
      </trkpt>
      <trkpt lat="45.3565" lon="5.8958">
        <ele>1694</ele>
        <time>2012-02-05T11:29:40-05:00</time>
      </trkpt>
      <trkpt lat="45.3565" lon="5.8958">
        <ele>1695</ele>
        <time>2012-02-05T11:30:52-05:00</time>
      </trkpt>
      <trkpt lat="45.3564" lon="5.8958">
        <ele>1696</ele>
        <time>2012-02-05T11:31:08-05:00</time>
      </trkpt>
      <trkpt lat="45.3564" lon="5.8957">
        <ele>1698</ele>
        <time>2012-02-05T11:31:31-05:00</time>
      </trkpt>
      <trkpt lat="45.3565" lon="5.8957">
        <ele>1699</ele>
        <time>2012-02-05T11:31:43-05:00</time>
      </trkpt>
      <trkpt lat="45.3566" lon="5.8957">
        <ele>1701</ele>
        <time>2012-02-05T11:32:01-05:00</time>
      </trkpt>
      <trkpt lat="45.3566" lon="5.8957">
        <ele>1704</ele>
        <time>2012-02-05T11:32:23-05:00</time>
      </trkpt>
      <trkpt lat="45.3565" lon="5.8957">
        <ele>1706</ele>
        <time>2012-02-05T11:32:38-05:00</time>
      </trkpt>
      <trkpt lat="45.3566" lon="5.8957">
        <ele>1708</ele>
        <time>2012-02-05T11:32:52-05:00</time>
      </trkpt>
      <trkpt lat="45.3567" lon="5.8956">
        <ele>1709</ele>
        <time>2012-02-05T11:33:10-05:00</time>
      </trkpt>
      <trkpt lat="45.3566" lon="5.8955">
        <ele>1711</ele>
        <time>2012-02-05T11:33:23-05:00</time>
      </trkpt>
      <trkpt lat="45.3566" lon="5.8954">
        <ele>1713</ele>
        <time>2012-02-05T11:33:43-05:00</time>
      </trkpt>
      <trkpt lat="45.3566" lon="5.8954">
        <ele>1716</ele>
        <time>2012-02-05T11:34:02-05:00</time>
      </trkpt>
      <trkpt lat="45.3567" lon="5.8955">
        <ele>1719</ele>
        <time>2012-02-05T11:34:21-05:00</time>
      </trkpt>
      <trkpt lat="45.3567" lon="5.8955">
        <ele>1721</ele>
        <time>2012-02-05T11:34:40-05:00</time>
      </trkpt>
      <trkpt lat="45.3567" lon="5.8955">
        <ele>1722</ele>
        <time>2012-02-05T11:35:14-05:00</time>
      </trkpt>
      <trkpt lat="45.3567" lon="5.8955">
        <ele>1724</ele>
        <time>2012-02-05T11:35:25-05:00</time>
      </trkpt>
      <trkpt lat="45.3567" lon="5.8955">
        <ele>1725</ele>
        <time>2012-02-05T11:35:41-05:00</time>
      </trkpt>
      <trkpt lat="45.3568" lon="5.8956">
        <ele>1727</ele>
        <time>2012-02-05T11:36:01-05:00</time>
      </trkpt>
      <trkpt lat="45.3569" lon="5.8956">
        <ele>1730</ele>
        <time>2012-02-05T11:36:21-05:00</time>
      </trkpt>
      <trkpt lat="45.3569" lon="5.8956">
        <ele>1732</ele>
        <time>2012-02-05T11:36:42-05:00</time>
      </trkpt>
      <trkpt lat="45.357" lon="5.8957">
        <ele>1735</ele>
        <time>2012-02-05T11:37:01-05:00</time>
      </trkpt>
      <trkpt lat="45.357" lon="5.8957">
        <ele>1736</ele>
        <time>2012-02-05T11:37:21-05:00</time>
      </trkpt>
      <trkpt lat="45.357" lon="5.8956">
        <ele>1738</ele>
        <time>2012-02-05T11:37:33-05:00</time>
      </trkpt>
      <trkpt lat="45.357" lon="5.8956">
        <ele>1740</ele>
        <time>2012-02-05T11:37:51-05:00</time>
      </trkpt>
      <trkpt lat="45.3569" lon="5.8955">
        <ele>1741</ele>
        <time>2012-02-05T11:38:12-05:00</time>
      </trkpt>
      <trkpt lat="45.3569" lon="5.8954">
        <ele>1745</ele>
        <time>2012-02-05T11:38:34-05:00</time>
      </trkpt>
      <trkpt lat="45.3569" lon="5.8953">
        <ele>1748</ele>
        <time>2012-02-05T11:38:53-05:00</time>
      </trkpt>
      <trkpt lat="45.3569" lon="5.8953">
        <ele>1750</ele>
        <time>2012-02-05T11:39:08-05:00</time>
      </trkpt>
      <trkpt lat="45.3569" lon="5.8953">
        <ele>1752</ele>
        <time>2012-02-05T11:39:26-05:00</time>
      </trkpt>
      <trkpt lat="45.357" lon="5.8954">
        <ele>1753</ele>
        <time>2012-02-05T11:39:43-05:00</time>
      </trkpt>
      <trkpt lat="45.357" lon="5.8954">
        <ele>1753</ele>
        <time>2012-02-05T11:40:03-05:00</time>
      </trkpt>
      <trkpt lat="45.3571" lon="5.8955">
        <ele>1755</ele>
        <time>2012-02-05T11:40:15-05:00</time>
      </trkpt>
      <trkpt lat="45.3571" lon="5.8956">
        <ele>1759</ele>
        <time>2012-02-05T11:40:29-05:00</time>
      </trkpt>
      <trkpt lat="45.3571" lon="5.8955">
        <ele>1762</ele>
        <time>2012-02-05T11:40:39-05:00</time>
      </trkpt>
      <trkpt lat="45.3571" lon="5.8954">
        <ele>1765</ele>
        <time>2012-02-05T11:40:55-05:00</time>
      </trkpt>
      <trkpt lat="45.3571" lon="5.8953">
        <ele>1766</ele>
        <time>2012-02-05T11:41:12-05:00</time>
      </trkpt>
      <trkpt lat="45.3571" lon="5.8953">
        <ele>1767</ele>
        <time>2012-02-05T11:41:45-05:00</time>
      </trkpt>
      <trkpt lat="45.3571" lon="5.8953">
        <ele>1767</ele>
        <time>2012-02-05T11:42:18-05:00</time>
      </trkpt>
      <trkpt lat="45.3572" lon="5.8954">
        <ele>1768</ele>
        <time>2012-02-05T11:42:48-05:00</time>
      </trkpt>
      <trkpt lat="45.3572" lon="5.8955">
        <ele>1768</ele>
        <time>2012-02-05T11:42:59-05:00</time>
      </trkpt>
      <trkpt lat="45.3572" lon="5.8955">
        <ele>1770</ele>
        <time>2012-02-05T11:43:19-05:00</time>
      </trkpt>
      <trkpt lat="45.3572" lon="5.8957">
        <ele>1775</ele>
        <time>2012-02-05T11:43:47-05:00</time>
      </trkpt>
      <trkpt lat="45.3573" lon="5.8959">
        <ele>1782</ele>
        <time>2012-02-05T11:44:09-05:00</time>
      </trkpt>
      <trkpt lat="45.3573" lon="5.896">
        <ele>1787</ele>
        <time>2012-02-05T11:44:16-05:00</time>
      </trkpt>
      <trkpt lat="45.3573" lon="5.896">
        <ele>1791</ele>
        <time>2012-02-05T11:44:18-05:00</time>
      </trkpt>
      <trkpt lat="45.3573" lon="5.8962">
        <ele>1796</ele>
        <time>2012-02-05T11:44:37-05:00</time>
      </trkpt>
      <trkpt lat="45.3573" lon="5.8963">
        <ele>1800</ele>
        <time>2012-02-05T11:44:52-05:00</time>
      </trkpt>
      <trkpt lat="45.3573" lon="5.8966">
        <ele>1806</ele>
        <time>2012-02-05T11:45:19-05:00</time>
      </trkpt>
      <trkpt lat="45.3573" lon="5.8967">
        <ele>1809</ele>
        <time>2012-02-05T11:45:47-05:00</time>
      </trkpt>
      <trkpt lat="45.3574" lon="5.8968">
        <ele>1812</ele>
        <time>2012-02-05T11:46:02-05:00</time>
      </trkpt>
      <trkpt lat="45.3573" lon="5.897">
        <ele>1814</ele>
        <time>2012-02-05T11:46:18-05:00</time>
      </trkpt>
      <trkpt lat="45.3573" lon="5.8973">
        <ele>1817</ele>
        <time>2012-02-05T11:46:39-05:00</time>
      </trkpt>
      <trkpt lat="45.3573" lon="5.8973">
        <ele>1818</ele>
        <time>2012-02-05T11:46:55-05:00</time>
      </trkpt>
      <trkpt lat="45.3574" lon="5.8974">
        <ele>1818</ele>
        <time>2012-02-05T11:47:11-05:00</time>
      </trkpt>
      <trkpt lat="45.3574" lon="5.8974">
        <ele>1818</ele>
        <time>2012-02-05T11:47:30-05:00</time>
      </trkpt>
      <trkpt lat="45.3574" lon="5.8976">
        <ele>1818</ele>
        <time>2012-02-05T11:47:46-05:00</time>
      </trkpt>
      <trkpt lat="45.3574" lon="5.8976">
        <ele>1817</ele>
        <time>2012-02-05T11:48:12-05:00</time>
      </trkpt>
      <trkpt lat="45.3574" lon="5.8976">
        <ele>1816</ele>
        <time>2012-02-05T11:48:40-05:00</time>
      </trkpt>
      <trkpt lat="45.3574" lon="5.8977">
        <ele>1815</ele>
        <time>2012-02-05T11:48:57-05:00</time>
      </trkpt>
      <trkpt lat="45.3575" lon="5.8978">
        <ele>1814</ele>
        <time>2012-02-05T11:49:13-05:00</time>
      </trkpt>
      <trkpt lat="45.3576" lon="5.8979">
        <ele>1813</ele>
        <time>2012-02-05T11:49:31-05:00</time>
      </trkpt>
      <trkpt lat="45.3577" lon="5.898">
        <ele>1812</ele>
        <time>2012-02-05T11:49:49-05:00</time>
      </trkpt>
      <trkpt lat="45.3578" lon="5.8979">
        <ele>1811</ele>
        <time>2012-02-05T11:50:09-05:00</time>
      </trkpt>
      <trkpt lat="45.3578" lon="5.8979">
        <ele>1811</ele>
        <time>2012-02-05T11:50:32-05:00</time>
      </trkpt>
      <trkpt lat="45.3578" lon="5.8979">
        <ele>1811</ele>
        <time>2012-02-05T11:51:03-05:00</time>
      </trkpt>
      <trkpt lat="45.3578" lon="5.8979">
        <ele>1809</ele>
        <time>2012-02-05T11:51:15-05:00</time>
      </trkpt>
      <trkpt lat="45.3579" lon="5.8978">
        <ele>1807</ele>
        <time>2012-02-05T11:51:30-05:00</time>
      </trkpt>
      <trkpt lat="45.3579" lon="5.8978">
        <ele>1805</ele>
        <time>2012-02-05T11:51:37-05:00</time>
      </trkpt>
      <trkpt lat="45.358" lon="5.8977">
        <ele>1803</ele>
        <time>2012-02-05T11:51:51-05:00</time>
      </trkpt>
      <trkpt lat="45.3581" lon="5.8975">
        <ele>1802</ele>
        <time>2012-02-05T11:52:10-05:00</time>
      </trkpt>
      <trkpt lat="45.3582" lon="5.8974">
        <ele>1801</ele>
        <time>2012-02-05T11:52:27-05:00</time>
      </trkpt>
      <trkpt lat="45.3582" lon="5.8974">
        <ele>1800</ele>
        <time>2012-02-05T11:52:32-05:00</time>
      </trkpt>
      <trkpt lat="45.3583" lon="5.8974">
        <ele>1801</ele>
        <time>2012-02-05T11:52:53-05:00</time>
      </trkpt>
      <trkpt lat="45.3583" lon="5.8974">
        <ele>1801</ele>
        <time>2012-02-05T11:53:14-05:00</time>
      </trkpt>
      <trkpt lat="45.3582" lon="5.8973">
        <ele>1804</ele>
        <time>2012-02-05T11:53:36-05:00</time>
      </trkpt>
      <trkpt lat="45.3581" lon="5.8973">
        <ele>1806</ele>
        <time>2012-02-05T11:53:53-05:00</time>
      </trkpt>
      <trkpt lat="45.3581" lon="5.8973">
        <ele>1809</ele>
        <time>2012-02-05T11:54:05-05:00</time>
      </trkpt>
      <trkpt lat="45.3581" lon="5.8973">
        <ele>1811</ele>
        <time>2012-02-05T11:54:19-05:00</time>
      </trkpt>
      <trkpt lat="45.3581" lon="5.8972">
        <ele>1813</ele>
        <time>2012-02-05T11:54:32-05:00</time>
      </trkpt>
      <trkpt lat="45.3581" lon="5.8972">
        <ele>1814</ele>
        <time>2012-02-05T11:54:43-05:00</time>
      </trkpt>
      <trkpt lat="45.3582" lon="5.8972">
        <ele>1815</ele>
        <time>2012-02-05T11:54:48-05:00</time>
      </trkpt>
      <trkpt lat="45.3582" lon="5.8971">
        <ele>1817</ele>
        <time>2012-02-05T11:54:59-05:00</time>
      </trkpt>
      <trkpt lat="45.3581" lon="5.8971">
        <ele>1818</ele>
        <time>2012-02-05T11:55:25-05:00</time>
      </trkpt>
      <trkpt lat="45.3581" lon="5.8971">
        <ele>1819</ele>
        <time>2012-02-05T11:56:23-05:00</time>
      </trkpt>
      <trkpt lat="45.3582" lon="5.897">
        <ele>1820</ele>
        <time>2012-02-05T11:56:28-05:00</time>
      </trkpt>
      <trkpt lat="45.3582" lon="5.8969">
        <ele>1821</ele>
        <time>2012-02-05T11:56:35-05:00</time>
      </trkpt>
      <trkpt lat="45.3582" lon="5.8969">
        <ele>1824</ele>
        <time>2012-02-05T11:56:50-05:00</time>
      </trkpt>
      <trkpt lat="45.3583" lon="5.897">
        <ele>1826</ele>
        <time>2012-02-05T11:57:07-05:00</time>
      </trkpt>
      <trkpt lat="45.3583" lon="5.897">
        <ele>1827</ele>
        <time>2012-02-05T11:57:23-05:00</time>
      </trkpt>
      <trkpt lat="45.3584" lon="5.8972">
        <ele>1830</ele>
        <time>2012-02-05T11:57:44-05:00</time>
      </trkpt>
      <trkpt lat="45.3584" lon="5.8972">
        <ele>1832</ele>
        <time>2012-02-05T11:58:07-05:00</time>
      </trkpt>
      <trkpt lat="45.3584" lon="5.8972">
        <ele>1834</ele>
        <time>2012-02-05T11:58:30-05:00</time>
      </trkpt>
      <trkpt lat="45.3584" lon="5.8972">
        <ele>1833</ele>
        <time>2012-02-05T11:58:45-05:00</time>
      </trkpt>
      <trkpt lat="45.3584" lon="5.8972">
        <ele>1834</ele>
        <time>2012-02-05T12:13:58-05:00</time>
      </trkpt>
      <trkpt lat="45.3584" lon="5.8972">
        <ele>1834</ele>
        <time>2012-02-05T12:21:26-05:00</time>
      </trkpt>
      <trkpt lat="45.3584" lon="5.8972">
        <ele>1835</ele>
        <time>2012-02-05T12:30:15-05:00</time>
      </trkpt>
      <trkpt lat="45.3584" lon="5.8972">
        <ele>1835</ele>
        <time>2012-02-05T12:30:47-05:00</time>
      </trkpt>
      <trkpt lat="45.3584" lon="5.8972">
        <ele>1836</ele>
        <time>2012-02-05T12:34:23-05:00</time>
      </trkpt>
      <trkpt lat="45.3584" lon="5.8972">
        <ele>1837</ele>
        <time>2012-02-05T12:35:23-05:00</time>
      </trkpt>
      <trkpt lat="45.3584" lon="5.8972">
        <ele>1838</ele>
        <time>2012-02-05T12:35:40-05:00</time>
      </trkpt>
      <trkpt lat="45.3584" lon="5.8972">
        <ele>1839</ele>
        <time>2012-02-05T12:36:04-05:00</time>
      </trkpt>
      <trkpt lat="45.3584" lon="5.8972">
        <ele>1839</ele>
        <time>2012-02-05T12:36:16-05:00</time>
      </trkpt>
      <trkpt lat="45.3584" lon="5.8972">
        <ele>1839</ele>
        <time>2012-02-05T12:36:35-05:00</time>
      </trkpt>
      <trkpt lat="45.3584" lon="5.8972">
        <ele>1839</ele>
        <time>2012-02-05T12:36:54-05:00</time>
      </trkpt>
      <trkpt lat="45.3584" lon="5.8972">
        <ele>1840</ele>
        <time>2012-02-05T12:37:08-05:00</time>
      </trkpt>
      <trkpt lat="45.3584" lon="5.8972">
        <ele>1840</ele>
        <time>2012-02-05T12:37:43-05:00</time>
      </trkpt>
      <trkpt lat="45.3584" lon="5.8972">
        <ele>1841</ele>
        <time>2012-02-05T12:38:06-05:00</time>
      </trkpt>
      <trkpt lat="45.3584" lon="5.8972">
        <ele>1841</ele>
        <time>2012-02-05T12:38:35-05:00</time>
      </trkpt>
      <trkpt lat="45.3584" lon="5.8972">
        <ele>1840</ele>
        <time>2012-02-05T12:39:06-05:00</time>
      </trkpt>
      <trkpt lat="45.3584" lon="5.8972">
        <ele>1840</ele>
        <time>2012-02-05T12:39:15-05:00</time>
      </trkpt>
      <trkpt lat="45.3583" lon="5.897">
        <ele>1839</ele>
        <time>2012-02-05T12:39:22-05:00</time>
      </trkpt>
      <trkpt lat="45.3582" lon="5.8969">
        <ele>1838</ele>
        <time>2012-02-05T12:39:34-05:00</time>
      </trkpt>
      <trkpt lat="45.3581" lon="5.8969">
        <ele>1837</ele>
        <time>2012-02-05T12:40:11-05:00</time>
      </trkpt>
      <trkpt lat="45.3581" lon="5.8969">
        <ele>1837</ele>
        <time>2012-02-05T12:40:24-05:00</time>
      </trkpt>
      <trkpt lat="45.3581" lon="5.8971">
        <ele>1834</ele>
        <time>2012-02-05T12:40:31-05:00</time>
      </trkpt>
      <trkpt lat="45.3581" lon="5.8971">
        <ele>1832</ele>
        <time>2012-02-05T12:40:32-05:00</time>
      </trkpt>
      <trkpt lat="45.3581" lon="5.8972">
        <ele>1830</ele>
        <time>2012-02-05T12:40:45-05:00</time>
      </trkpt>
      <trkpt lat="45.3581" lon="5.8972">
        <ele>1828</ele>
        <time>2012-02-05T12:41:04-05:00</time>
      </trkpt>
      <trkpt lat="45.3581" lon="5.8973">
        <ele>1826</ele>
        <time>2012-02-05T12:41:20-05:00</time>
      </trkpt>
      <trkpt lat="45.3581" lon="5.8973">
        <ele>1824</ele>
        <time>2012-02-05T12:41:37-05:00</time>
      </trkpt>
      <trkpt lat="45.3582" lon="5.8973">
        <ele>1821</ele>
        <time>2012-02-05T12:41:45-05:00</time>
      </trkpt>
      <trkpt lat="45.3582" lon="5.8974">
        <ele>1817</ele>
        <time>2012-02-05T12:41:53-05:00</time>
      </trkpt>
      <trkpt lat="45.3582" lon="5.8974">
        <ele>1814</ele>
        <time>2012-02-05T12:42:04-05:00</time>
      </trkpt>
      <trkpt lat="45.3582" lon="5.8975">
        <ele>1810</ele>
        <time>2012-02-05T12:42:09-05:00</time>
      </trkpt>
      <trkpt lat="45.3582" lon="5.8976">
        <ele>1806</ele>
        <time>2012-02-05T12:42:18-05:00</time>
      </trkpt>
      <trkpt lat="45.3583" lon="5.8976">
        <ele>1801</ele>
        <time>2012-02-05T12:42:30-05:00</time>
      </trkpt>
      <trkpt lat="45.3583" lon="5.8976">
        <ele>1799</ele>
        <time>2012-02-05T12:43:56-05:00</time>
      </trkpt>
      <trkpt lat="45.3583" lon="5.8976">
        <ele>1798</ele>
        <time>2012-02-05T12:45:03-05:00</time>
      </trkpt>
      <trkpt lat="45.3583" lon="5.8977">
        <ele>1796</ele>
        <time>2012-02-05T12:45:07-05:00</time>
      </trkpt>
      <trkpt lat="45.3583" lon="5.8978">
        <ele>1794</ele>
        <time>2012-02-05T12:45:10-05:00</time>
      </trkpt>
      <trkpt lat="45.3583" lon="5.8978">
        <ele>1791</ele>
        <time>2012-02-05T12:45:20-05:00</time>
      </trkpt>
      <trkpt lat="45.3583" lon="5.8979">
        <ele>1789</ele>
        <time>2012-02-05T12:45:21-05:00</time>
      </trkpt>
      <trkpt lat="45.3583" lon="5.8979">
        <ele>1786</ele>
        <time>2012-02-05T12:45:31-05:00</time>
      </trkpt>
      <trkpt lat="45.3583" lon="5.898">
        <ele>1784</ele>
        <time>2012-02-05T12:45:35-05:00</time>
      </trkpt>
      <trkpt lat="45.3583" lon="5.898">
        <ele>1781</ele>
        <time>2012-02-05T12:45:38-05:00</time>
      </trkpt>
      <trkpt lat="45.3583" lon="5.8981">
        <ele>1778</ele>
        <time>2012-02-05T12:45:44-05:00</time>
      </trkpt>
      <trkpt lat="45.3583" lon="5.8982">
        <ele>1774</ele>
        <time>2012-02-05T12:45:54-05:00</time>
      </trkpt>
      <trkpt lat="45.3583" lon="5.8982">
        <ele>1772</ele>
        <time>2012-02-05T12:46:26-05:00</time>
      </trkpt>
      <trkpt lat="45.3583" lon="5.8982">
        <ele>1771</ele>
        <time>2012-02-05T12:47:03-05:00</time>
      </trkpt>
      <trkpt lat="45.3583" lon="5.8982">
        <ele>1770</ele>
        <time>2012-02-05T12:47:25-05:00</time>
      </trkpt>
      <trkpt lat="45.3581" lon="5.8984">
        <ele>1769</ele>
        <time>2012-02-05T12:47:41-05:00</time>
      </trkpt>
      <trkpt lat="45.3581" lon="5.8986">
        <ele>1768</ele>
        <time>2012-02-05T12:47:47-05:00</time>
      </trkpt>
      <trkpt lat="45.3582" lon="5.8987">
        <ele>1766</ele>
        <time>2012-02-05T12:47:52-05:00</time>
      </trkpt>
      <trkpt lat="45.3584" lon="5.8989">
        <ele>1758</ele>
        <time>2012-02-05T12:47:58-05:00</time>
      </trkpt>
      <trkpt lat="45.3585" lon="5.899">
        <ele>1748</ele>
        <time>2012-02-05T12:48:04-05:00</time>
      </trkpt>
      <trkpt lat="45.3585" lon="5.8991">
        <ele>1739</ele>
        <time>2012-02-05T12:48:12-05:00</time>
      </trkpt>
      <trkpt lat="45.3585" lon="5.8991">
        <ele>1734</ele>
        <time>2012-02-05T12:49:55-05:00</time>
      </trkpt>
      <trkpt lat="45.3585" lon="5.8991">
        <ele>1732</ele>
        <time>2012-02-05T12:50:48-05:00</time>
      </trkpt>
      <trkpt lat="45.3585" lon="5.8992">
        <ele>1725</ele>
        <time>2012-02-05T12:50:54-05:00</time>
      </trkpt>
      <trkpt lat="45.3585" lon="5.8995">
        <ele>1713</ele>
        <time>2012-02-05T12:51:02-05:00</time>
      </trkpt>
      <trkpt lat="45.3586" lon="5.8995">
        <ele>1706</ele>
        <time>2012-02-05T12:51:07-05:00</time>
      </trkpt>
      <trkpt lat="45.3585" lon="5.8996">
        <ele>1701</ele>
        <time>2012-02-05T12:51:09-05:00</time>
      </trkpt>
      <trkpt lat="45.3584" lon="5.8996">
        <ele>1698</ele>
        <time>2012-02-05T12:51:11-05:00</time>
      </trkpt>
      <trkpt lat="45.3583" lon="5.8997">
        <ele>1693</ele>
        <time>2012-02-05T12:51:20-05:00</time>
      </trkpt>
      <trkpt lat="45.3583" lon="5.8997">
        <ele>1690</ele>
        <time>2012-02-05T12:51:45-05:00</time>
      </trkpt>
      <trkpt lat="45.3583" lon="5.8997">
        <ele>1689</ele>
        <time>2012-02-05T12:51:50-05:00</time>
      </trkpt>
      <trkpt lat="45.3584" lon="5.8997">
        <ele>1686</ele>
        <time>2012-02-05T12:51:53-05:00</time>
      </trkpt>
      <trkpt lat="45.3584" lon="5.8998">
        <ele>1681</ele>
        <time>2012-02-05T12:51:59-05:00</time>
      </trkpt>
      <trkpt lat="45.3584" lon="5.8998">
        <ele>1678</ele>
        <time>2012-02-05T12:52:00-05:00</time>
      </trkpt>
      <trkpt lat="45.3584" lon="5.8999">
        <ele>1674</ele>
        <time>2012-02-05T12:52:08-05:00</time>
      </trkpt>
      <trkpt lat="45.3584" lon="5.9">
        <ele>1670</ele>
        <time>2012-02-05T12:52:27-05:00</time>
      </trkpt>
      <trkpt lat="45.3584" lon="5.9">
        <ele>1668</ele>
        <time>2012-02-05T12:52:32-05:00</time>
      </trkpt>
      <trkpt lat="45.3584" lon="5.9">
        <ele>1667</ele>
        <time>2012-02-05T12:52:34-05:00</time>
      </trkpt>
      <trkpt lat="45.3583" lon="5.9001">
        <ele>1661</ele>
        <time>2012-02-05T12:52:40-05:00</time>
      </trkpt>
      <trkpt lat="45.3584" lon="5.9002">
        <ele>1657</ele>
        <time>2012-02-05T12:52:55-05:00</time>
      </trkpt>
      <trkpt lat="45.3584" lon="5.9001">
        <ele>1655</ele>
        <time>2012-02-05T12:54:03-05:00</time>
      </trkpt>
      <trkpt lat="45.3585" lon="5.9002">
        <ele>1654</ele>
        <time>2012-02-05T12:55:05-05:00</time>
      </trkpt>
      <trkpt lat="45.3585" lon="5.9002">
        <ele>1654</ele>
        <time>2012-02-05T12:55:23-05:00</time>
      </trkpt>
      <trkpt lat="45.3584" lon="5.9005">
        <ele>1648</ele>
        <time>2012-02-05T12:55:30-05:00</time>
      </trkpt>
      <trkpt lat="45.3584" lon="5.9006">
        <ele>1640</ele>
        <time>2012-02-05T12:55:36-05:00</time>
      </trkpt>
      <trkpt lat="45.3583" lon="5.9006">
        <ele>1634</ele>
        <time>2012-02-05T12:55:38-05:00</time>
      </trkpt>
      <trkpt lat="45.3583" lon="5.9007">
        <ele>1628</ele>
        <time>2012-02-05T12:55:44-05:00</time>
      </trkpt>
      <trkpt lat="45.3581" lon="5.9006">
        <ele>1622</ele>
        <time>2012-02-05T12:55:50-05:00</time>
      </trkpt>
      <trkpt lat="45.358" lon="5.9007">
        <ele>1616</ele>
        <time>2012-02-05T12:55:58-05:00</time>
      </trkpt>
      <trkpt lat="45.358" lon="5.9007">
        <ele>1612</ele>
        <time>2012-02-05T12:56:51-05:00</time>
      </trkpt>
      <trkpt lat="45.358" lon="5.9007">
        <ele>1610</ele>
        <time>2012-02-05T12:57:08-05:00</time>
      </trkpt>
      <trkpt lat="45.358" lon="5.9007">
        <ele>1609</ele>
        <time>2012-02-05T12:57:33-05:00</time>
      </trkpt>
      <trkpt lat="45.358" lon="5.9007">
        <ele>1608</ele>
        <time>2012-02-05T12:58:25-05:00</time>
      </trkpt>
      <trkpt lat="45.358" lon="5.9007">
        <ele>1608</ele>
        <time>2012-02-05T12:58:33-05:00</time>
      </trkpt>
      <trkpt lat="45.358" lon="5.9008">
        <ele>1607</ele>
        <time>2012-02-05T12:58:36-05:00</time>
      </trkpt>
      <trkpt lat="45.3579" lon="5.9007">
        <ele>1605</ele>
        <time>2012-02-05T12:58:45-05:00</time>
      </trkpt>
      <trkpt lat="45.3579" lon="5.9007">
        <ele>1603</ele>
        <time>2012-02-05T12:59:03-05:00</time>
      </trkpt>
      <trkpt lat="45.3579" lon="5.9007">
        <ele>1601</ele>
        <time>2012-02-05T12:59:05-05:00</time>
      </trkpt>
      <trkpt lat="45.3578" lon="5.9007">
        <ele>1599</ele>
        <time>2012-02-05T12:59:10-05:00</time>
      </trkpt>
      <trkpt lat="45.3578" lon="5.9008">
        <ele>1599</ele>
        <time>2012-02-05T12:59:14-05:00</time>
      </trkpt>
      <trkpt lat="45.3576" lon="5.9008">
        <ele>1597</ele>
        <time>2012-02-05T12:59:20-05:00</time>
      </trkpt>
      <trkpt lat="45.3575" lon="5.9008">
        <ele>1595</ele>
        <time>2012-02-05T12:59:27-05:00</time>
      </trkpt>
      <trkpt lat="45.3575" lon="5.9008">
        <ele>1594</ele>
        <time>2012-02-05T12:59:53-05:00</time>
      </trkpt>
      <trkpt lat="45.3575" lon="5.9008">
        <ele>1594</ele>
        <time>2012-02-05T12:59:55-05:00</time>
      </trkpt>
      <trkpt lat="45.3574" lon="5.9008">
        <ele>1592</ele>
        <time>2012-02-05T13:00:02-05:00</time>
      </trkpt>
      <trkpt lat="45.3573" lon="5.9009">
        <ele>1589</ele>
        <time>2012-02-05T13:00:09-05:00</time>
      </trkpt>
      <trkpt lat="45.3573" lon="5.9009">
        <ele>1587</ele>
        <time>2012-02-05T13:00:12-05:00</time>
      </trkpt>
      <trkpt lat="45.3574" lon="5.9009">
        <ele>1585</ele>
        <time>2012-02-05T13:00:27-05:00</time>
      </trkpt>
      <trkpt lat="45.3573" lon="5.901">
        <ele>1583</ele>
        <time>2012-02-05T13:00:49-05:00</time>
      </trkpt>
      <trkpt lat="45.3573" lon="5.901">
        <ele>1582</ele>
        <time>2012-02-05T13:01:05-05:00</time>
      </trkpt>
      <trkpt lat="45.3573" lon="5.901">
        <ele>1582</ele>
        <time>2012-02-05T13:01:08-05:00</time>
      </trkpt>
      <trkpt lat="45.3572" lon="5.9011">
        <ele>1581</ele>
        <time>2012-02-05T13:01:16-05:00</time>
      </trkpt>
      <trkpt lat="45.3572" lon="5.9011">
        <ele>1579</ele>
        <time>2012-02-05T13:01:19-05:00</time>
      </trkpt>
      <trkpt lat="45.3571" lon="5.9011">
        <ele>1576</ele>
        <time>2012-02-05T13:01:27-05:00</time>
      </trkpt>
      <trkpt lat="45.3571" lon="5.9012">
        <ele>1573</ele>
        <time>2012-02-05T13:01:46-05:00</time>
      </trkpt>
      <trkpt lat="45.357" lon="5.9012">
        <ele>1571</ele>
        <time>2012-02-05T13:02:03-05:00</time>
      </trkpt>
      <trkpt lat="45.357" lon="5.9012">
        <ele>1567</ele>
        <time>2012-02-05T13:02:14-05:00</time>
      </trkpt>
      <trkpt lat="45.3569" lon="5.9012">
        <ele>1563</ele>
        <time>2012-02-05T13:02:16-05:00</time>
      </trkpt>
      <trkpt lat="45.3569" lon="5.9013">
        <ele>1561</ele>
        <time>2012-02-05T13:02:18-05:00</time>
      </trkpt>
      <trkpt lat="45.3569" lon="5.9013">
        <ele>1558</ele>
        <time>2012-02-05T13:02:31-05:00</time>
      </trkpt>
      <trkpt lat="45.3569" lon="5.9013">
        <ele>1556</ele>
        <time>2012-02-05T13:02:48-05:00</time>
      </trkpt>
      <trkpt lat="45.3569" lon="5.9014">
        <ele>1555</ele>
        <time>2012-02-05T13:02:55-05:00</time>
      </trkpt>
      <trkpt lat="45.3568" lon="5.9013">
        <ele>1553</ele>
        <time>2012-02-05T13:03:01-05:00</time>
      </trkpt>
      <trkpt lat="45.3568" lon="5.9013">
        <ele>1551</ele>
        <time>2012-02-05T13:03:12-05:00</time>
      </trkpt>
      <trkpt lat="45.3568" lon="5.9013">
        <ele>1549</ele>
        <time>2012-02-05T13:03:16-05:00</time>
      </trkpt>
      <trkpt lat="45.3568" lon="5.9013">
        <ele>1547</ele>
        <time>2012-02-05T13:03:19-05:00</time>
      </trkpt>
      <trkpt lat="45.3568" lon="5.9015">
        <ele>1543</ele>
        <time>2012-02-05T13:03:26-05:00</time>
      </trkpt>
      <trkpt lat="45.3568" lon="5.9015">
        <ele>1540</ele>
        <time>2012-02-05T13:03:40-05:00</time>
      </trkpt>
      <trkpt lat="45.3568" lon="5.9015">
        <ele>1538</ele>
        <time>2012-02-05T13:04:05-05:00</time>
      </trkpt>
      <trkpt lat="45.3568" lon="5.9016">
        <ele>1536</ele>
        <time>2012-02-05T13:04:23-05:00</time>
      </trkpt>
      <trkpt lat="45.3568" lon="5.9016">
        <ele>1535</ele>
        <time>2012-02-05T13:04:29-05:00</time>
      </trkpt>
      <trkpt lat="45.3568" lon="5.9017">
        <ele>1533</ele>
        <time>2012-02-05T13:04:33-05:00</time>
      </trkpt>
      <trkpt lat="45.3567" lon="5.9018">
        <ele>1532</ele>
        <time>2012-02-05T13:04:36-05:00</time>
      </trkpt>
      <trkpt lat="45.3567" lon="5.9017">
        <ele>1531</ele>
        <time>2012-02-05T13:04:38-05:00</time>
      </trkpt>
      <trkpt lat="45.3567" lon="5.9018">
        <ele>1528</ele>
        <time>2012-02-05T13:04:48-05:00</time>
      </trkpt>
      <trkpt lat="45.3567" lon="5.9018">
        <ele>1526</ele>
        <time>2012-02-05T13:05:03-05:00</time>
      </trkpt>
      <trkpt lat="45.3567" lon="5.9018">
        <ele>1524</ele>
        <time>2012-02-05T13:05:12-05:00</time>
      </trkpt>
      <trkpt lat="45.3567" lon="5.9019">
        <ele>1522</ele>
        <time>2012-02-05T13:05:21-05:00</time>
      </trkpt>
      <trkpt lat="45.3566" lon="5.902">
        <ele>1520</ele>
        <time>2012-02-05T13:05:27-05:00</time>
      </trkpt>
      <trkpt lat="45.3566" lon="5.902">
        <ele>1518</ele>
        <time>2012-02-05T13:05:42-05:00</time>
      </trkpt>
      <trkpt lat="45.3566" lon="5.902">
        <ele>1517</ele>
        <time>2012-02-05T13:06:26-05:00</time>
      </trkpt>
      <trkpt lat="45.3566" lon="5.902">
        <ele>1516</ele>
        <time>2012-02-05T13:07:54-05:00</time>
      </trkpt>
      <trkpt lat="45.3566" lon="5.902">
        <ele>1516</ele>
        <time>2012-02-05T13:09:34-05:00</time>
      </trkpt>
      <trkpt lat="45.3564" lon="5.9021">
        <ele>1513</ele>
        <time>2012-02-05T13:09:40-05:00</time>
      </trkpt>
      <trkpt lat="45.3564" lon="5.9022">
        <ele>1511</ele>
        <time>2012-02-05T13:09:42-05:00</time>
      </trkpt>
      <trkpt lat="45.3563" lon="5.9022">
        <ele>1508</ele>
        <time>2012-02-05T13:09:47-05:00</time>
      </trkpt>
      <trkpt lat="45.3563" lon="5.9023">
        <ele>1505</ele>
        <time>2012-02-05T13:09:49-05:00</time>
      </trkpt>
      <trkpt lat="45.3562" lon="5.9023">
        <ele>1502</ele>
        <time>2012-02-05T13:09:54-05:00</time>
      </trkpt>
      <trkpt lat="45.3562" lon="5.9024">
        <ele>1499</ele>
        <time>2012-02-05T13:09:57-05:00</time>
      </trkpt>
      <trkpt lat="45.3562" lon="5.9025">
        <ele>1493</ele>
        <time>2012-02-05T13:10:05-05:00</time>
      </trkpt>
      <trkpt lat="45.3562" lon="5.9025">
        <ele>1490</ele>
        <time>2012-02-05T13:10:18-05:00</time>
      </trkpt>
      <trkpt lat="45.3561" lon="5.9026">
        <ele>1485</ele>
        <time>2012-02-05T13:10:27-05:00</time>
      </trkpt>
      <trkpt lat="45.3561" lon="5.9026">
        <ele>1482</ele>
        <time>2012-02-05T13:10:36-05:00</time>
      </trkpt>
      <trkpt lat="45.356" lon="5.9027">
        <ele>1480</ele>
        <time>2012-02-05T13:10:43-05:00</time>
      </trkpt>
      <trkpt lat="45.356" lon="5.9027">
        <ele>1479</ele>
        <time>2012-02-05T13:11:23-05:00</time>
      </trkpt>
      <trkpt lat="45.356" lon="5.9027">
        <ele>1478</ele>
        <time>2012-02-05T13:11:43-05:00</time>
      </trkpt>
      <trkpt lat="45.356" lon="5.9029">
        <ele>1476</ele>
        <time>2012-02-05T13:11:47-05:00</time>
      </trkpt>
      <trkpt lat="45.3559" lon="5.9031">
        <ele>1472</ele>
        <time>2012-02-05T13:11:55-05:00</time>
      </trkpt>
      <trkpt lat="45.3559" lon="5.9032">
        <ele>1467</ele>
        <time>2012-02-05T13:12:03-05:00</time>
      </trkpt>
      <trkpt lat="45.3559" lon="5.9032">
        <ele>1464</ele>
        <time>2012-02-05T13:12:39-05:00</time>
      </trkpt>
      <trkpt lat="45.3559" lon="5.9032">
        <ele>1463</ele>
        <time>2012-02-05T13:12:40-05:00</time>
      </trkpt>
      <trkpt lat="45.3559" lon="5.9032">
        <ele>1461</ele>
        <time>2012-02-05T13:12:43-05:00</time>
      </trkpt>
      <trkpt lat="45.3558" lon="5.9035">
        <ele>1455</ele>
        <time>2012-02-05T13:12:51-05:00</time>
      </trkpt>
      <trkpt lat="45.3558" lon="5.9035">
        <ele>1452</ele>
        <time>2012-02-05T13:12:52-05:00</time>
      </trkpt>
      <trkpt lat="45.3557" lon="5.9035">
        <ele>1447</ele>
        <time>2012-02-05T13:13:03-05:00</time>
      </trkpt>
      <trkpt lat="45.3557" lon="5.9035">
        <ele>1443</ele>
        <time>2012-02-05T13:13:04-05:00</time>
      </trkpt>
      <trkpt lat="45.3558" lon="5.9036">
        <ele>1441</ele>
        <time>2012-02-05T13:13:14-05:00</time>
      </trkpt>
      <trkpt lat="45.3558" lon="5.9036">
        <ele>1439</ele>
        <time>2012-02-05T13:13:42-05:00</time>
      </trkpt>
      <trkpt lat="45.3559" lon="5.9036">
        <ele>1437</ele>
        <time>2012-02-05T13:14:05-05:00</time>
      </trkpt>
      <trkpt lat="45.3558" lon="5.9037">
        <ele>1435</ele>
        <time>2012-02-05T13:14:16-05:00</time>
      </trkpt>
      <trkpt lat="45.3559" lon="5.9038">
        <ele>1432</ele>
        <time>2012-02-05T13:14:25-05:00</time>
      </trkpt>
      <trkpt lat="45.3559" lon="5.9038">
        <ele>1430</ele>
        <time>2012-02-05T13:14:26-05:00</time>
      </trkpt>
      <trkpt lat="45.3562" lon="5.9041">
        <ele>1426</ele>
        <time>2012-02-05T13:14:36-05:00</time>
      </trkpt>
      <trkpt lat="45.3562" lon="5.9044">
        <ele>1423</ele>
        <time>2012-02-05T13:14:42-05:00</time>
      </trkpt>
      <trkpt lat="45.3563" lon="5.9045">
        <ele>1420</ele>
        <time>2012-02-05T13:14:52-05:00</time>
      </trkpt>
      <trkpt lat="45.3563" lon="5.9045">
        <ele>1419</ele>
        <time>2012-02-05T13:15:05-05:00</time>
      </trkpt>
      <trkpt lat="45.3564" lon="5.9047">
        <ele>1416</ele>
        <time>2012-02-05T13:15:13-05:00</time>
      </trkpt>
      <trkpt lat="45.3564" lon="5.9048">
        <ele>1412</ele>
        <time>2012-02-05T13:15:16-05:00</time>
      </trkpt>
      <trkpt lat="45.3566" lon="5.9052">
        <ele>1404</ele>
        <time>2012-02-05T13:15:26-05:00</time>
      </trkpt>
      <trkpt lat="45.3566" lon="5.9053">
        <ele>1399</ele>
        <time>2012-02-05T13:15:28-05:00</time>
      </trkpt>
      <trkpt lat="45.3567" lon="5.9054">
        <ele>1393</ele>
        <time>2012-02-05T13:15:35-05:00</time>
      </trkpt>
      <trkpt lat="45.3567" lon="5.9055">
        <ele>1388</ele>
        <time>2012-02-05T13:16:01-05:00</time>
      </trkpt>
      <trkpt lat="45.3569" lon="5.9058">
        <ele>1383</ele>
        <time>2012-02-05T13:16:09-05:00</time>
      </trkpt>
      <trkpt lat="45.3569" lon="5.9058">
        <ele>1380</ele>
        <time>2012-02-05T13:16:16-05:00</time>
      </trkpt>
      <trkpt lat="45.3569" lon="5.9059">
        <ele>1379</ele>
        <time>2012-02-05T13:16:22-05:00</time>
      </trkpt>
      <trkpt lat="45.357" lon="5.9059">
        <ele>1377</ele>
        <time>2012-02-05T13:16:26-05:00</time>
      </trkpt>
      <trkpt lat="45.3571" lon="5.9061">
        <ele>1374</ele>
        <time>2012-02-05T13:16:34-05:00</time>
      </trkpt>
      <trkpt lat="45.3572" lon="5.9062">
        <ele>1372</ele>
        <time>2012-02-05T13:16:36-05:00</time>
      </trkpt>
      <trkpt lat="45.3573" lon="5.9066">
        <ele>1367</ele>
        <time>2012-02-05T13:16:44-05:00</time>
      </trkpt>
      <trkpt lat="45.3573" lon="5.9067">
        <ele>1364</ele>
        <time>2012-02-05T13:16:47-05:00</time>
      </trkpt>
      <trkpt lat="45.3573" lon="5.9067">
        <ele>1361</ele>
        <time>2012-02-05T13:16:49-05:00</time>
      </trkpt>
      <trkpt lat="45.3575" lon="5.907">
        <ele>1355</ele>
        <time>2012-02-05T13:16:59-05:00</time>
      </trkpt>
      <trkpt lat="45.3575" lon="5.9071">
        <ele>1352</ele>
        <time>2012-02-05T13:17:01-05:00</time>
      </trkpt>
      <trkpt lat="45.3578" lon="5.9075">
        <ele>1345</ele>
        <time>2012-02-05T13:17:09-05:00</time>
      </trkpt>
      <trkpt lat="45.3582" lon="5.9078">
        <ele>1341</ele>
        <time>2012-02-05T13:17:15-05:00</time>
      </trkpt>
      <trkpt lat="45.3582" lon="5.9078">
        <ele>1339</ele>
        <time>2012-02-05T13:17:34-05:00</time>
      </trkpt>
      <trkpt lat="45.3581" lon="5.9079">
        <ele>1336</ele>
        <time>2012-02-05T13:17:54-05:00</time>
      </trkpt>
      <trkpt lat="45.3581" lon="5.9079">
        <ele>1335</ele>
        <time>2012-02-05T13:18:01-05:00</time>
      </trkpt>
      <trkpt lat="45.3581" lon="5.9079">
        <ele>1332</ele>
        <time>2012-02-05T13:18:07-05:00</time>
      </trkpt>
      <trkpt lat="45.358" lon="5.9081">
        <ele>1329</ele>
        <time>2012-02-05T13:18:16-05:00</time>
      </trkpt>
      <trkpt lat="45.358" lon="5.9082">
        <ele>1325</ele>
        <time>2012-02-05T13:18:19-05:00</time>
      </trkpt>
      <trkpt lat="45.3581" lon="5.9083">
        <ele>1322</ele>
        <time>2012-02-05T13:18:21-05:00</time>
      </trkpt>
      <trkpt lat="45.358" lon="5.9085">
        <ele>1321</ele>
        <time>2012-02-05T13:18:25-05:00</time>
      </trkpt>
      <trkpt lat="45.358" lon="5.9086">
        <ele>1319</ele>
        <time>2012-02-05T13:18:29-05:00</time>
      </trkpt>
      <trkpt lat="45.358" lon="5.9088">
        <ele>1316</ele>
        <time>2012-02-05T13:18:36-05:00</time>
      </trkpt>
      <trkpt lat="45.358" lon="5.9089">
        <ele>1314</ele>
        <time>2012-02-05T13:18:37-05:00</time>
      </trkpt>
      <trkpt lat="45.3579" lon="5.9089">
        <ele>1310</ele>
        <time>2012-02-05T13:18:41-05:00</time>
      </trkpt>
      <trkpt lat="45.3577" lon="5.9088">
        <ele>1304</ele>
        <time>2012-02-05T13:18:49-05:00</time>
      </trkpt>
      <trkpt lat="45.3577" lon="5.9088">
        <ele>1301</ele>
        <time>2012-02-05T13:18:50-05:00</time>
      </trkpt>
      <trkpt lat="45.3574" lon="5.9087">
        <ele>1296</ele>
        <time>2012-02-05T13:19:00-05:00</time>
      </trkpt>
      <trkpt lat="45.3574" lon="5.9087">
        <ele>1294</ele>
        <time>2012-02-05T13:19:04-05:00</time>
      </trkpt>
      <trkpt lat="45.3574" lon="5.9088">
        <ele>1290</ele>
        <time>2012-02-05T13:19:11-05:00</time>
      </trkpt>
      <trkpt lat="45.3574" lon="5.9088">
        <ele>1289</ele>
        <time>2012-02-05T13:19:12-05:00</time>
      </trkpt>
      <trkpt lat="45.3574" lon="5.909">
        <ele>1286</ele>
        <time>2012-02-05T13:19:18-05:00</time>
      </trkpt>
      <trkpt lat="45.3574" lon="5.909">
        <ele>1284</ele>
        <time>2012-02-05T13:19:21-05:00</time>
      </trkpt>
      <trkpt lat="45.3574" lon="5.909">
        <ele>1282</ele>
        <time>2012-02-05T13:19:25-05:00</time>
      </trkpt>
      <trkpt lat="45.3572" lon="5.9089">
        <ele>1280</ele>
        <time>2012-02-05T13:19:31-05:00</time>
      </trkpt>
      <trkpt lat="45.3569" lon="5.9088">
        <ele>1277</ele>
        <time>2012-02-05T13:19:40-05:00</time>
      </trkpt>
      <trkpt lat="45.3569" lon="5.9088">
        <ele>1275</ele>
        <time>2012-02-05T13:20:10-05:00</time>
      </trkpt>
      <trkpt lat="45.3569" lon="5.9088">
        <ele>1274</ele>
        <time>2012-02-05T13:20:11-05:00</time>
      </trkpt>
      <trkpt lat="45.3569" lon="5.909">
        <ele>1271</ele>
        <time>2012-02-05T13:20:15-05:00</time>
      </trkpt>
      <trkpt lat="45.3569" lon="5.9097">
        <ele>1263</ele>
        <time>2012-02-05T13:20:21-05:00</time>
      </trkpt>
      <trkpt lat="45.3569" lon="5.9101">
        <ele>1258</ele>
        <time>2012-02-05T13:20:24-05:00</time>
      </trkpt>
      <trkpt lat="45.357" lon="5.9107">
        <ele>1251</ele>
        <time>2012-02-05T13:20:28-05:00</time>
      </trkpt>
      <trkpt lat="45.3571" lon="5.9112">
        <ele>1244</ele>
        <time>2012-02-05T13:20:32-05:00</time>
      </trkpt>
      <trkpt lat="45.3571" lon="5.9115">
        <ele>1237</ele>
        <time>2012-02-05T13:20:34-05:00</time>
      </trkpt>
      <trkpt lat="45.3573" lon="5.9119">
        <ele>1229</ele>
        <time>2012-02-05T13:20:37-05:00</time>
      </trkpt>
      <trkpt lat="45.3573" lon="5.9121">
        <ele>1222</ele>
        <time>2012-02-05T13:20:39-05:00</time>
      </trkpt>
      <trkpt lat="45.3573" lon="5.9131">
        <ele>1206</ele>
        <time>2012-02-05T13:20:46-05:00</time>
      </trkpt>
      <trkpt lat="45.3572" lon="5.914">
        <ele>1189</ele>
        <time>2012-02-05T13:20:52-05:00</time>
      </trkpt>
      <trkpt lat="45.3571" lon="5.9143">
        <ele>1176</ele>
        <time>2012-02-05T13:20:54-05:00</time>
      </trkpt>
      <trkpt lat="45.357" lon="5.9145">
        <ele>1168</ele>
        <time>2012-02-05T13:20:56-05:00</time>
      </trkpt>
      <trkpt lat="45.3571" lon="5.9148">
        <ele>1159</ele>
        <time>2012-02-05T13:21:02-05:00</time>
      </trkpt>
      <trkpt lat="45.3571" lon="5.9148">
        <ele>1153</ele>
        <time>2012-02-05T13:21:11-05:00</time>
      </trkpt>
      <trkpt lat="45.3571" lon="5.9148">
        <ele>1150</ele>
        <time>2012-02-05T13:21:17-05:00</time>
      </trkpt>
      <trkpt lat="45.357" lon="5.915">
        <ele>1145</ele>
        <time>2012-02-05T13:21:24-05:00</time>
      </trkpt>
      <trkpt lat="45.3568" lon="5.9153">
        <ele>1139</ele>
        <time>2012-02-05T13:21:27-05:00</time>
      </trkpt>
      <trkpt lat="45.3567" lon="5.9156">
        <ele>1133</ele>
        <time>2012-02-05T13:21:30-05:00</time>
      </trkpt>
      <trkpt lat="45.3565" lon="5.916">
        <ele>1126</ele>
        <time>2012-02-05T13:21:34-05:00</time>
      </trkpt>
      <trkpt lat="45.3563" lon="5.9163">
        <ele>1120</ele>
        <time>2012-02-05T13:21:37-05:00</time>
      </trkpt>
      <trkpt lat="45.3563" lon="5.9165">
        <ele>1114</ele>
        <time>2012-02-05T13:21:42-05:00</time>
      </trkpt>
      <trkpt lat="45.3563" lon="5.9165">
        <ele>1110</ele>
        <time>2012-02-05T13:22:03-05:00</time>
      </trkpt>
      <trkpt lat="45.3562" lon="5.9167">
        <ele>1107</ele>
        <time>2012-02-05T13:22:07-05:00</time>
      </trkpt>
      <trkpt lat="45.3563" lon="5.9169">
        <ele>1104</ele>
        <time>2012-02-05T13:22:09-05:00</time>
      </trkpt>
      <trkpt lat="45.3565" lon="5.9172">
        <ele>1100</ele>
        <time>2012-02-05T13:22:13-05:00</time>
      </trkpt>
      <trkpt lat="45.3567" lon="5.9174">
        <ele>1096</ele>
        <time>2012-02-05T13:22:16-05:00</time>
      </trkpt>
      <trkpt lat="45.3569" lon="5.9177">
        <ele>1090</ele>
        <time>2012-02-05T13:22:19-05:00</time>
      </trkpt>
      <trkpt lat="45.3569" lon="5.9181">
        <ele>1081</ele>
        <time>2012-02-05T13:22:24-05:00</time>
      </trkpt>
      <trkpt lat="45.3569" lon="5.9182">
        <ele>1077</ele>
        <time>2012-02-05T13:22:25-05:00</time>
      </trkpt>
      <trkpt lat="45.3567" lon="5.9182">
        <ele>1074</ele>
        <time>2012-02-05T13:22:33-05:00</time>
      </trkpt>
      <trkpt lat="45.3567" lon="5.9182">
        <ele>1072</ele>
        <time>2012-02-05T13:22:50-05:00</time>
      </trkpt>
      <trkpt lat="45.3567" lon="5.9182">
        <ele>1071</ele>
        <time>2012-02-05T13:22:58-05:00</time>
      </trkpt>
      <trkpt lat="45.3567" lon="5.9182">
        <ele>1069</ele>
        <time>2012-02-05T13:23:21-05:00</time>
      </trkpt>
      <trkpt lat="45.3567" lon="5.9182">
        <ele>1068</ele>
        <time>2012-02-05T13:23:34-05:00</time>
      </trkpt>
      <trkpt lat="45.3566" lon="5.9183">
        <ele>1068</ele>
        <time>2012-02-05T13:23:51-05:00</time>
      </trkpt>
      <trkpt lat="45.3565" lon="5.9183">
        <ele>1068</ele>
        <time>2012-02-05T13:24:08-05:00</time>
      </trkpt>
      <trkpt lat="45.3564" lon="5.9183">
        <ele>1068</ele>
        <time>2012-02-05T13:24:24-05:00</time>
      </trkpt>
      <trkpt lat="45.3563" lon="5.9184">
        <ele>1068</ele>
        <time>2012-02-05T13:24:34-05:00</time>
      </trkpt>
      <trkpt lat="45.3562" lon="5.9185">
        <ele>1068</ele>
        <time>2012-02-05T13:24:51-05:00</time>
      </trkpt>
      <trkpt lat="45.3561" lon="5.9186">
        <ele>1067</ele>
        <time>2012-02-05T13:25:11-05:00</time>
      </trkpt>
      <trkpt lat="45.356" lon="5.9187">
        <ele>1067</ele>
        <time>2012-02-05T13:25:28-05:00</time>
      </trkpt>
      <trkpt lat="45.3559" lon="5.9187">
        <ele>1067</ele>
        <time>2012-02-05T13:25:34-05:00</time>
      </trkpt>
      <trkpt lat="45.3559" lon="5.9189">
        <ele>1067</ele>
        <time>2012-02-05T13:25:49-05:00</time>
      </trkpt>
      <trkpt lat="45.3559" lon="5.9189">
        <ele>1068</ele>
        <time>2012-02-05T13:25:57-05:00</time>
      </trkpt>
      <trkpt lat="45.3561" lon="5.919">
        <ele>1068</ele>
        <time>2012-02-05T13:26:14-05:00</time>
      </trkpt>
      <trkpt lat="45.3562" lon="5.919">
        <ele>1068</ele>
        <time>2012-02-05T13:26:27-05:00</time>
      </trkpt>
      <trkpt lat="45.3562" lon="5.919">
        <ele>1068</ele>
        <time>2012-02-05T13:27:31-05:00</time>
      </trkpt>
      <trkpt lat="45.3561" lon="5.919">
        <ele>1067</ele>
        <time>2012-02-05T13:27:51-05:00</time>
      </trkpt>
      <trkpt lat="45.3561" lon="5.919">
        <ele>1067</ele>
        <time>2012-02-05T13:28:11-05:00</time>
      </trkpt>
    </trkseg>
  </trk>
</gpx>